Observation data for Boys Ranch on 10/17/2019      Previous  Date       Current Mesonet Observations  Soil Data  Daily Summary Page  Observations in Plain Language
KBY1 170500Z 07001KT 07/02 A3009 RMK A01 T00700015  RH  068%=      5-min Rain = 0
KBY1 170501Z 08000KT 07/02 A3009 RMK A01 T00710018  RH  069%=      5-min Rain = 0
KBY1 170502Z 07001KT 07/02 A3009 RMK A01 T00710018  RH  069%=      5-min Rain = 0
KBY1 170503Z 05000KT 07/02 A3009 RMK A01 T00710018  RH  069%=      5-min Rain = 0
KBY1 170504Z 02000KT 07/02 A3009 RMK A01 T00720018  RH  069%=      5-min Rain = 0
KBY1 170505Z 01001KT 07/02 A3009 RMK A01 T00710018  RH  069%=      5-min Rain = 0
KBY1 170506Z 04000KT 07/02 A3009 RMK A01 T00710018  RH  069%=      5-min Rain = 0
KBY1 170507Z 06000KT 07/02 A3009 RMK A01 T00710019  RH  069%=      5-min Rain = 0
KBY1 170508Z 05001KT 07/02 A3009 RMK A01 T00710019  RH  070%=      5-min Rain = 0
KBY1 170509Z 04001KT 07/02 A3009 RMK A01 T00700019  RH  070%=      5-min Rain = 0
KBY1 170510Z 05001KT 07/02 A3009 RMK A01 T00700019  RH  070%=      5-min Rain = 0
KBY1 170511Z 05000KT 07/02 A3009 RMK A01 T00700019  RH  070%=      5-min Rain = 0
KBY1 170512Z 00000KT 07/02 A3009 RMK A01 T00700019  RH  070%=      5-min Rain = 0
KBY1 170513Z 00000KT 07/02 A3009 RMK A01 T00690019  RH  070%=      5-min Rain = 0
KBY1 170514Z 03001KT 07/02 A3009 RMK A01 T00690018  RH  070%=      5-min Rain = 0
KBY1 170515Z 03001KT 07/02 A3009 RMK A01 T00690018  RH  070%=      5-min Rain = 0
KBY1 170516Z 04001KT 07/02 A3009 RMK A01 T00690018  RH  070%=      5-min Rain = 0
KBY1 170517Z 04001KT 07/02 A3008 RMK A01 T00700018  RH  070%=      5-min Rain = 0
KBY1 170518Z 05002KT 07/02 A3008 RMK A01 T00700018  RH  070%=      5-min Rain = 0
KBY1 170519Z 04002KT 07/02 A3008 RMK A01 T00710018  RH  069%=      5-min Rain = 0
KBY1 170520Z 04002KT 07/02 A3008 RMK A01 T00710017  RH  069%=      5-min Rain = 0
KBY1 170521Z 03002KT 07/02 A3008 RMK A01 T00720017  RH  068%=      5-min Rain = 0
KBY1 170522Z 02001KT 07/02 A3008 RMK A01 T00720018  RH  068%=      5-min Rain = 0
KBY1 170523Z 03002KT 07/02 A3008 RMK A01 T00720017  RH  068%=      5-min Rain = 0
KBY1 170524Z 03002KT 07/02 A3008 RMK A01 T00720017  RH  068%=      5-min Rain = 0
KBY1 170525Z 02002KT 07/02 A3008 RMK A01 T00720018  RH  069%=      5-min Rain = 0
KBY1 170526Z 03002KT 07/02 A3008 RMK A01 T00720018  RH  069%=      5-min Rain = 0
KBY1 170527Z 02002KT 07/02 A3008 RMK A01 T00710019  RH  069%=      5-min Rain = 0
KBY1 170528Z 01002KT 07/02 A3008 RMK A01 T00700019  RH  070%=      5-min Rain = 0
KBY1 170529Z 02002KT 07/02 A3008 RMK A01 T00690018  RH  070%=      5-min Rain = 0
KBY1 170530Z 01002KT 07/02 A3008 RMK A01 T00690018  RH  070%=      5-min Rain = 0
KBY1 170531Z 01002KT 07/02 A3008 RMK A01 T00690018  RH  070%=      5-min Rain = 0
KBY1 170532Z 02002KT 07/02 A3008 RMK A01 T00690019  RH  070%=      5-min Rain = 0
KBY1 170533Z 00002KT 07/02 A3008 RMK A01 T00690020  RH  071%=      5-min Rain = 0
KBY1 170534Z 02002KT 07/02 A3008 RMK A01 T00680020  RH  071%=      5-min Rain = 0
KBY1 170535Z 01002KT 07/02 A3008 RMK A01 T00680020  RH  072%=      5-min Rain = 0
KBY1 170536Z 36002KT 07/02 A3008 RMK A01 T00670018  RH  071%=      5-min Rain = 0
KBY1 170537Z 36002KT 07/02 A3008 RMK A01 T00680018  RH  070%=      5-min Rain = 0
KBY1 170538Z 34001KT 07/02 A3008 RMK A01 T00690018  RH  070%=      5-min Rain = 0
KBY1 170539Z 36001KT 07/02 A3008 RMK A01 T00690018  RH  070%=      5-min Rain = 0
KBY1 170540Z 34001KT 07/02 A3008 RMK A01 T00670018  RH  071%=      5-min Rain = 0
KBY1 170541Z 35001KT 07/02 A3008 RMK A01 T00660018  RH  071%=      5-min Rain = 0
KBY1 170542Z 00000KT 07/02 A3007 RMK A01 T00660018  RH  071%=      5-min Rain = 0
KBY1 170543Z 00000KT 06/02 A3007 RMK A01 T00640015  RH  071%=      5-min Rain = 0
KBY1 170544Z 00000KT 06/01 A3007 RMK A01 T00600013  RH  072%=      5-min Rain = 0
KBY1 170545Z 00000KT 06/01 A3007 RMK A01 T00570012  RH  073%=      5-min Rain = 0
KBY1 170546Z 00000KT 05/01 A3007 RMK A01 T00540012  RH  074%=      5-min Rain = 0
KBY1 170547Z 00000KT 05/01 A3007 RMK A01 T00520013  RH  076%=      5-min Rain = 0
KBY1 170548Z 20000KT 05/02 A3007 RMK A01 T00510015  RH  078%=      5-min Rain = 0
KBY1 170549Z 22001KT 05/02 A3007 RMK A01 T00510016  RH  078%=      5-min Rain = 0
KBY1 170550Z 24000KT 05/02 A3007 RMK A01 T00510017  RH  079%=      5-min Rain = 0
KBY1 170551Z 25000KT 05/02 A3007 RMK A01 T00500017  RH  079%=      5-min Rain = 0
KBY1 170552Z 25000KT 05/02 A3007 RMK A01 T00500018  RH  080%=      5-min Rain = 0
KBY1 170553Z 25000KT 05/02 A3007 RMK A01 T00500018  RH  080%=      5-min Rain = 0
KBY1 170554Z 25000KT 05/02 A3007 RMK A01 T00510019  RH  080%=      5-min Rain = 0
KBY1 170555Z 00000KT 05/02 A3007 RMK A01 T00520019  RH  079%=      5-min Rain = 0
KBY1 170556Z 00000KT 05/02 A3007 RMK A01 T00530019  RH  079%=      5-min Rain = 0
KBY1 170557Z 00000KT 05/02 A3007 RMK A01 T00530019  RH  079%=      5-min Rain = 0
KBY1 170558Z 00000KT 05/02 A3007 RMK A01 T00530020  RH  079%=      5-min Rain = 0
KBY1 170559Z 00000KT 05/02 A3007 RMK A01 T00520019  RH  079%=      5-min Rain = 0
KBY1 170600Z 00000KT 05/02 A3007 RMK A01 T00520020  RH  080%=      5-min Rain = 0
KBY1 170601Z 21000KT 05/02 A3007 RMK A01 T00520020  RH  080%=      5-min Rain = 0
KBY1 170602Z 22001KT 05/02 A3007 RMK A01 T00520019  RH  079%=      5-min Rain = 0
KBY1 170603Z 00000KT 05/02 A3007 RMK A01 T00520018  RH  079%=      5-min Rain = 0
KBY1 170604Z 00000KT 05/02 A3007 RMK A01 T00520019  RH  079%=      5-min Rain = 0
KBY1 170605Z 00000KT 05/02 A3007 RMK A01 T00520020  RH  080%=      5-min Rain = 0
KBY1 170606Z 00000KT 05/02 A3007 RMK A01 T00510019  RH  080%=      5-min Rain = 0
KBY1 170607Z 00000KT 05/02 A3007 RMK A01 T00500019  RH  080%=      5-min Rain = 0
KBY1 170608Z 00000KT 05/02 A3007 RMK A01 T00500019  RH  080%=      5-min Rain = 0
KBY1 170609Z 00000KT 05/02 A3007 RMK A01 T00500019  RH  081%=      5-min Rain = 0
KBY1 170610Z 00000KT 05/02 A3007 RMK A01 T00500019  RH  081%=      5-min Rain = 0
KBY1 170611Z 00000KT 05/02 A3007 RMK A01 T00490019  RH  081%=      5-min Rain = 0
KBY1 170612Z 00000KT 05/02 A3007 RMK A01 T00500019  RH  080%=      5-min Rain = 0
KBY1 170613Z 00000KT 05/02 A3007 RMK A01 T00510020  RH  080%=      5-min Rain = 0
KBY1 170614Z 00000KT 05/02 A3007 RMK A01 T00510019  RH  080%=      5-min Rain = 0
KBY1 170615Z 00000KT 05/02 A3007 RMK A01 T00520019  RH  079%=      5-min Rain = 0
KBY1 170616Z 00000KT 05/02 A3007 RMK A01 T00530019  RH  079%=      5-min Rain = 0
KBY1 170617Z 00000KT 05/02 A3007 RMK A01 T00540019  RH  078%=      5-min Rain = 0
KBY1 170618Z 00000KT 06/02 A3007 RMK A01 T00550018  RH  077%=      5-min Rain = 0
KBY1 170619Z 00000KT 06/02 A3007 RMK A01 T00560019  RH  077%=      5-min Rain = 0
KBY1 170620Z 00000KT 06/02 A3007 RMK A01 T00560018  RH  076%=      5-min Rain = 0
KBY1 170621Z 00000KT 06/02 A3007 RMK A01 T00570018  RH  076%=      5-min Rain = 0
KBY1 170622Z 00000KT 06/02 A3007 RMK A01 T00570018  RH  076%=      5-min Rain = 0
KBY1 170623Z 00000KT 06/02 A3007 RMK A01 T00570017  RH  075%=      5-min Rain = 0
KBY1 170624Z 00000KT 06/02 A3007 RMK A01 T00570016  RH  075%=      5-min Rain = 0
KBY1 170625Z 00000KT 06/02 A3007 RMK A01 T00570016  RH  075%=      5-min Rain = 0
KBY1 170626Z 00000KT 06/02 A3006 RMK A01 T00570016  RH  075%=      5-min Rain = 0
KBY1 170627Z 00000KT 06/02 A3006 RMK A01 T00570016  RH  075%=      5-min Rain = 0
KBY1 170628Z 00000KT 06/02 A3006 RMK A01 T00570015  RH  075%=      5-min Rain = 0
KBY1 170629Z 00000KT 06/02 A3006 RMK A01 T00580015  RH  074%=      5-min Rain = 0
KBY1 170630Z 00000KT 06/02 A3006 RMK A01 T00580015  RH  074%=      5-min Rain = 0
KBY1 170631Z 00000KT 06/02 A3006 RMK A01 T00590015  RH  074%=      5-min Rain = 0
KBY1 170632Z 00000KT 06/02 A3006 RMK A01 T00590015  RH  073%=      5-min Rain = 0
KBY1 170633Z 00000KT 06/02 A3006 RMK A01 T00590015  RH  073%=      5-min Rain = 0
KBY1 170634Z 00000KT 06/02 A3006 RMK A01 T00600015  RH  073%=      5-min Rain = 0
KBY1 170635Z 00000KT 06/02 A3006 RMK A01 T00620016  RH  072%=      5-min Rain = 0
KBY1 170636Z 00000KT 06/02 A3006 RMK A01 T00620016  RH  072%=      5-min Rain = 0
KBY1 170637Z 00000KT 06/02 A3006 RMK A01 T00620018  RH  074%=      5-min Rain = 0
KBY1 170638Z 00000KT 06/02 A3006 RMK A01 T00610019  RH  074%=      5-min Rain = 0
KBY1 170639Z 00000KT 06/02 A3006 RMK A01 T00600018  RH  075%=      5-min Rain = 0
KBY1 170640Z 00000KT 06/02 A3006 RMK A01 T00580018  RH  075%=      5-min Rain = 0
KBY1 170641Z 00000KT 06/02 A3006 RMK A01 T00560016  RH  075%=      5-min Rain = 0
KBY1 170642Z 12001KT 05/01 A3006 RMK A01 T00530013  RH  075%=      5-min Rain = 0
KBY1 170643Z 10001KT 05/01 A3006 RMK A01 T00510012  RH  076%=      5-min Rain = 0
KBY1 170644Z 05001KT 05/01 A3006 RMK A01 T00490012  RH  077%=      5-min Rain = 0
KBY1 170645Z 05000KT 05/01 A3006 RMK A01 T00470012  RH  078%=      5-min Rain = 0
KBY1 170646Z 00000KT 05/01 A3006 RMK A01 T00470013  RH  079%=      5-min Rain = 0
KBY1 170647Z 00000KT 05/02 A3006 RMK A01 T00460015  RH  080%=      5-min Rain = 0
KBY1 170648Z 05000KT 05/02 A3006 RMK A01 T00450017  RH  082%=      5-min Rain = 0
KBY1 170649Z 00000KT 05/02 A3006 RMK A01 T00450017  RH  082%=      5-min Rain = 0
KBY1 170650Z 00000KT 04/02 A3006 RMK A01 T00440017  RH  083%=      5-min Rain = 0
KBY1 170651Z 00000KT 04/02 A3006 RMK A01 T00430017  RH  083%=      5-min Rain = 0
KBY1 170652Z 00000KT 04/02 A3006 RMK A01 T00430017  RH  083%=      5-min Rain = 0
KBY1 170653Z 00000KT 04/02 A3006 RMK A01 T00430017  RH  083%=      5-min Rain = 0
KBY1 170654Z 00000KT 04/02 A3006 RMK A01 T00430017  RH  083%=      5-min Rain = 0
KBY1 170655Z 00000KT 05/02 A3006 RMK A01 T00450017  RH  082%=      5-min Rain = 0
KBY1 170656Z 00000KT 05/02 A3006 RMK A01 T00450016  RH  081%=      5-min Rain = 0
KBY1 170657Z 00000KT 05/02 A3006 RMK A01 T00470017  RH  081%=      5-min Rain = 0
KBY1 170658Z 00000KT 05/02 A3006 RMK A01 T00490017  RH  080%=      5-min Rain = 0
KBY1 170659Z 00000KT 05/02 A3006 RMK A01 T00520018  RH  079%=      5-min Rain = 0
KBY1 170700Z 00000KT 05/02 A3006 RMK A01 T00530017  RH  078%=      5-min Rain = 0
KBY1 170701Z 00000KT 05/02 A3006 RMK A01 T00530017  RH  078%=      5-min Rain = 0
KBY1 170702Z 00000KT 05/01 A3006 RMK A01 T00470011  RH  077%=      5-min Rain = 0
KBY1 170703Z 00000KT 04/01 A3006 RMK A01 T00430009  RH  078%=      5-min Rain = 0
KBY1 170704Z 00000KT 04/01 A3006 RMK A01 T00400008  RH  080%=      5-min Rain = 0
KBY1 170705Z 00000KT 04/01 A3006 RMK A01 T00380009  RH  081%=      5-min Rain = 0
KBY1 170706Z 00000KT 04/01 A3006 RMK A01 T00370010  RH  083%=      5-min Rain = 0
KBY1 170707Z 00000KT 04/01 A3006 RMK A01 T00360011  RH  084%=      5-min Rain = 0
KBY1 170708Z 00000KT 04/01 A3006 RMK A01 T00350012  RH  085%=      5-min Rain = 0
KBY1 170709Z 00000KT 04/01 A3006 RMK A01 T00350013  RH  085%=      5-min Rain = 0
KBY1 170710Z 00000KT 04/01 A3006 RMK A01 T00350013  RH  086%=      5-min Rain = 0
KBY1 170711Z 16000KT 04/01 A3006 RMK A01 T00350014  RH  086%=      5-min Rain = 0
KBY1 170712Z 14000KT 04/01 A3006 RMK A01 T00350014  RH  086%=      5-min Rain = 0
KBY1 170713Z 00000KT 04/02 A3006 RMK A01 T00350015  RH  087%=      5-min Rain = 0
KBY1 170714Z 00000KT 04/02 A3006 RMK A01 T00360016  RH  087%=      5-min Rain = 0
KBY1 170715Z 00000KT 04/02 A3006 RMK A01 T00360017  RH  087%=      5-min Rain = 0
KBY1 170716Z 00000KT 04/02 A3006 RMK A01 T00360017  RH  087%=      5-min Rain = 0
KBY1 170717Z 00000KT 04/02 A3006 RMK A01 T00370017  RH  087%=      5-min Rain = 0
KBY1 170718Z 00000KT 04/02 A3006 RMK A01 T00370017  RH  087%=      5-min Rain = 0
KBY1 170719Z 00000KT 04/02 A3006 RMK A01 T00380018  RH  087%=      5-min Rain = 0
KBY1 170720Z 00000KT 04/02 A3006 RMK A01 T00390018  RH  086%=      5-min Rain = 0
KBY1 170721Z 04001KT 04/02 A3006 RMK A01 T00400018  RH  086%=      5-min Rain = 0
KBY1 170722Z 03001KT 04/02 A3006 RMK A01 T00410017  RH  084%=      5-min Rain = 0
KBY1 170723Z 04001KT 04/02 A3006 RMK A01 T00410016  RH  083%=      5-min Rain = 0
KBY1 170724Z 03002KT 04/01 A3006 RMK A01 T00420014  RH  082%=      5-min Rain = 0
KBY1 170725Z 03002KT 04/01 A3006 RMK A01 T00420014  RH  082%=      5-min Rain = 0
KBY1 170726Z 02002KT 04/01 A3006 RMK A01 T00420014  RH  082%=      5-min Rain = 0
KBY1 170727Z 03002KT 04/02 A3006 RMK A01 T00430015  RH  082%=      5-min Rain = 0
KBY1 170728Z 03002KT 04/02 A3006 RMK A01 T00430015  RH  082%=      5-min Rain = 0
KBY1 170729Z 03002KT 04/02 A3006 RMK A01 T00440015  RH  081%=      5-min Rain = 0
KBY1 170730Z 03002KT 05/02 A3006 RMK A01 T00460015  RH  080%=      5-min Rain = 0
KBY1 170731Z 03002KT 05/01 A3006 RMK A01 T00470014  RH  080%=      5-min Rain = 0
KBY1 170732Z 03001KT 05/01 A3006 RMK A01 T00470014  RH  079%=      5-min Rain = 0
KBY1 170733Z 03001KT 05/01 A3006 RMK A01 T00470014  RH  079%=      5-min Rain = 0
KBY1 170734Z 04001KT 05/02 A3006 RMK A01 T00470015  RH  079%=      5-min Rain = 0
KBY1 170735Z 05001KT 05/01 A3006 RMK A01 T00470014  RH  079%=      5-min Rain = 0
KBY1 170736Z 04000KT 05/02 A3006 RMK A01 T00460015  RH  080%=      5-min Rain = 0
KBY1 170737Z 01001KT 05/02 A3006 RMK A01 T00460015  RH  080%=      5-min Rain = 0
KBY1 170738Z 02001KT 04/01 A3006 RMK A01 T00440014  RH  081%=      5-min Rain = 0
KBY1 170739Z 01001KT 04/01 A3006 RMK A01 T00430013  RH  081%=      5-min Rain = 0
KBY1 170740Z 00000KT 04/01 A3006 RMK A01 T00430013  RH  081%=      5-min Rain = 0
KBY1 170741Z 35000KT 04/01 A3006 RMK A01 T00420013  RH  081%=      5-min Rain = 0
KBY1 170742Z 35000KT 04/01 A3006 RMK A01 T00400010  RH  081%=      5-min Rain = 0
KBY1 170743Z 35000KT 04/01 A3006 RMK A01 T00380010  RH  082%=      5-min Rain = 0
KBY1 170744Z 34001KT 04/01 A3006 RMK A01 T00380010  RH  082%=      5-min Rain = 0
KBY1 170745Z 32001KT 04/01 A3006 RMK A01 T00370011  RH  083%=      5-min Rain = 0
KBY1 170746Z 32000KT 04/01 A3006 RMK A01 T00370011  RH  083%=      5-min Rain = 0
KBY1 170747Z 00000KT 04/01 A3006 RMK A01 T00370012  RH  084%=      5-min Rain = 0
KBY1 170748Z 00000KT 04/01 A3006 RMK A01 T00360013  RH  085%=      5-min Rain = 0
KBY1 170749Z 00000KT 04/01 A3006 RMK A01 T00350012  RH  085%=      5-min Rain = 0
KBY1 170750Z 00000KT 03/01 A3006 RMK A01 T00340012  RH  085%=      5-min Rain = 0
KBY1 170751Z 00000KT 03/01 A3006 RMK A01 T00330011  RH  086%=      5-min Rain = 0
KBY1 170752Z 19001KT 03/01 A3006 RMK A01 T00320010  RH  086%=      5-min Rain = 0
KBY1 170753Z 19001KT 03/01 A3006 RMK A01 T00300008  RH  086%=      5-min Rain = 0
KBY1 170754Z 19001KT 03/01 A3006 RMK A01 T00270007  RH  086%=      5-min Rain = 0
KBY1 170755Z 19001KT 03/01 A3006 RMK A01 T00260006  RH  087%=      5-min Rain = 0
KBY1 170756Z 19000KT 03/01 A3006 RMK A01 T00250007  RH  088%=      5-min Rain = 0
KBY1 170757Z 00000KT 02/01 A3006 RMK A01 T00240007  RH  089%=      5-min Rain = 0
KBY1 170758Z 00000KT 02/01 A3006 RMK A01 T00230007  RH  089%=      5-min Rain = 0
KBY1 170759Z 00000KT 02/01 A3005 RMK A01 T00220008  RH  090%=      5-min Rain = 0
KBY1 170800Z 00000KT 02/01 A3005 RMK A01 T00220009  RH  091%=      5-min Rain = 0
KBY1 170801Z 00000KT 02/01 A3005 RMK A01 T00230009  RH  091%=      5-min Rain = 0
KBY1 170802Z 00000KT 02/01 A3005 RMK A01 T00220009  RH  091%=      5-min Rain = 0
KBY1 170803Z 00000KT 02/01 A3005 RMK A01 T00220009  RH  091%=      5-min Rain = 0
KBY1 170804Z 00000KT 02/01 A3005 RMK A01 T00210009  RH  091%=      5-min Rain = 0
KBY1 170805Z 00000KT 02/01 A3005 RMK A01 T00220010  RH  092%=      5-min Rain = 0
KBY1 170806Z 33000KT 02/01 A3005 RMK A01 T00210009  RH  092%=      5-min Rain = 0
KBY1 170807Z 34000KT 02/01 A3005 RMK A01 T00210009  RH  092%=      5-min Rain = 0
KBY1 170808Z 32000KT 02/01 A3005 RMK A01 T00210010  RH  092%=      5-min Rain = 0
KBY1 170809Z 32000KT 02/01 A3005 RMK A01 T00210010  RH  092%=      5-min Rain = 0
KBY1 170810Z 34000KT 02/01 A3005 RMK A01 T00210010  RH  093%=      5-min Rain = 0
KBY1 170811Z 34000KT 02/01 A3005 RMK A01 T00210010  RH  093%=      5-min Rain = 0
KBY1 170812Z 34000KT 02/01 A3005 RMK A01 T00210010  RH  093%=      5-min Rain = 0
KBY1 170813Z 33000KT 02/01 A3005 RMK A01 T00210010  RH  093%=      5-min Rain = 0
KBY1 170814Z 00000KT 02/01 A3005 RMK A01 T00200009  RH  092%=      5-min Rain = 0
KBY1 170815Z 00000KT 02/01 A3005 RMK A01 T00200008  RH  092%=      5-min Rain = 0
KBY1 170816Z 00000KT 02/01 A3005 RMK A01 T00190008  RH  092%=      5-min Rain = 0
KBY1 170817Z 00000KT 02/01 A3005 RMK A01 T00190008  RH  092%=      5-min Rain = 0
KBY1 170818Z 00000KT 02/01 A3005 RMK A01 T00190008  RH  092%=      5-min Rain = 0
KBY1 170819Z 00000KT 02/01 A3005 RMK A01 T00180007  RH  092%=      5-min Rain = 0
KBY1 170820Z 00000KT 02/01 A3005 RMK A01 T00180007  RH  092%=      5-min Rain = 0
KBY1 170821Z 00000KT 02/01 A3005 RMK A01 T00180007  RH  092%=      5-min Rain = 0
KBY1 170822Z 00001KT 02/01 A3005 RMK A01 T00190010  RH  093%=      5-min Rain = 0
KBY1 170823Z 35001KT 02/01 A3005 RMK A01 T00210012  RH  094%=      5-min Rain = 0
KBY1 170824Z 36002KT 02/01 A3005 RMK A01 T00220012  RH  094%=      5-min Rain = 0
KBY1 170825Z 36001KT 02/01 A3005 RMK A01 T00230014  RH  094%=      5-min Rain = 0
KBY1 170826Z 01001KT 02/02 A3005 RMK A01 T00240015  RH  094%=      5-min Rain = 0
KBY1 170827Z 01000KT 03/02 A3005 RMK A01 T00250015  RH  093%=      5-min Rain = 0
KBY1 170828Z 00000KT 03/01 A3005 RMK A01 T00250014  RH  092%=      5-min Rain = 0
KBY1 170829Z 00000KT 03/01 A3005 RMK A01 T00260013  RH  092%=      5-min Rain = 0
KBY1 170830Z 28000KT 03/01 A3005 RMK A01 T00250012  RH  091%=      5-min Rain = 0
KBY1 170831Z 06000KT 02/01 A3006 RMK A01 T00230007  RH  090%=      5-min Rain = 0
KBY1 170832Z 05001KT 02/00 A3006 RMK A01 T00200003  RH  089%=      5-min Rain = 0
KBY1 170833Z 04000KT 02/00 A3006 RMK A01 T00180001  RH  089%=      5-min Rain = 0
KBY1 170834Z 00000KT 02/00 A3006 RMK A01 T00170002  RH  090%=      5-min Rain = 0
KBY1 170835Z 00000KT 02/00 A3006 RMK A01 T00160003  RH  091%=      5-min Rain = 0
KBY1 170836Z 00000KT 02/01 A3006 RMK A01 T00170006  RH  092%=      5-min Rain = 0
KBY1 170837Z 00000KT 02/01 A3006 RMK A01 T00180007  RH  092%=      5-min Rain = 0
KBY1 170838Z 18000KT 02/01 A3006 RMK A01 T00190008  RH  092%=      5-min Rain = 0
KBY1 170839Z 19001KT 02/01 A3006 RMK A01 T00190007  RH  092%=      5-min Rain = 0
KBY1 170840Z 21001KT 02/00 A3006 RMK A01 T00170003  RH  091%=      5-min Rain = 0
KBY1 170841Z 23000KT 02/00 A3005 RMK A01 T00160002  RH  090%=      5-min Rain = 0
KBY1 170842Z 23001KT 02/00 A3005 RMK A01 T00150002  RH  091%=      5-min Rain = 0
KBY1 170843Z 23001KT 02/00 A3005 RMK A01 T00150002  RH  091%=      5-min Rain = 0
KBY1 170844Z 23001KT 02/00 A3005 RMK A01 T00150002  RH  091%=      5-min Rain = 0
KBY1 170845Z 22001KT 02/00 A3005 RMK A01 T00150003  RH  092%=      5-min Rain = 0
KBY1 170846Z 22000KT 02/00 A3005 RMK A01 T00150003  RH  092%=      5-min Rain = 0
KBY1 170847Z 00000KT 01/00 A3005 RMK A01 T00140003  RH  092%=      5-min Rain = 0
KBY1 170848Z 00000KT 01/00 A3005 RMK A01 T00130002  RH  092%=      5-min Rain = 0
KBY1 170849Z 00000KT 01/00 A3005 RMK A01 T00120001  RH  092%=      5-min Rain = 0
KBY1 170850Z 00000KT 01/00 A3005 RMK A01 T00120000  RH  092%=      5-min Rain = 0
KBY1 170851Z 33000KT 01/00 A3005 RMK A01 T00110000  RH  093%=      5-min Rain = 0
KBY1 170852Z 32001KT 01/00 A3005 RMK A01 T00110001  RH  093%=      5-min Rain = 0
KBY1 170853Z 31002KT 01/00 A3005 RMK A01 T00110001  RH  093%=      5-min Rain = 0
KBY1 170854Z 31001KT 01/00 A3004 RMK A01 T00120004  RH  094%=      5-min Rain = 0
KBY1 170855Z 31001KT 02/01 A3004 RMK A01 T00150008  RH  095%=      5-min Rain = 0
KBY1 170856Z 34001KT 02/01 A3004 RMK A01 T00180012  RH  096%=      5-min Rain = 0
KBY1 170857Z 01001KT 02/01 A3004 RMK A01 T00200014  RH  096%=      5-min Rain = 0
KBY1 170858Z 02001KT 02/02 A3004 RMK A01 T00220015  RH  095%=      5-min Rain = 0
KBY1 170859Z 02001KT 02/01 A3004 RMK A01 T00230014  RH  094%=      5-min Rain = 0
KBY1 170900Z 04001KT 02/01 A3004 RMK A01 T00230012  RH  092%=      5-min Rain = 0
KBY1 170901Z 04001KT 02/01 A3004 RMK A01 T00230010  RH  091%=      5-min Rain = 0
KBY1 170902Z 05001KT 02/01 A3004 RMK A01 T00230009  RH  091%=      5-min Rain = 0
KBY1 170903Z 05002KT 02/01 A3004 RMK A01 T00230010  RH  091%=      5-min Rain = 0
KBY1 170904Z 04001KT 02/01 A3004 RMK A01 T00240010  RH  090%=      5-min Rain = 0
KBY1 170905Z 05001KT 02/01 A3004 RMK A01 T00240009  RH  090%=      5-min Rain = 0
KBY1 170906Z 05001KT 02/01 A3004 RMK A01 T00240008  RH  089%=      5-min Rain = 0
KBY1 170907Z 05000KT 02/01 A3004 RMK A01 T00220006  RH  089%=      5-min Rain = 0
KBY1 170908Z 00000KT 02/01 A3004 RMK A01 T00210005  RH  089%=      5-min Rain = 0
KBY1 170909Z 00000KT 02/01 A3004 RMK A01 T00200005  RH  090%=      5-min Rain = 0
KBY1 170910Z 00000KT 02/01 A3004 RMK A01 T00200006  RH  090%=      5-min Rain = 0
KBY1 170911Z 00000KT 02/01 A3004 RMK A01 T00200007  RH  091%=      5-min Rain = 0
KBY1 170912Z 00000KT 02/01 A3004 RMK A01 T00200008  RH  092%=      5-min Rain = 0
KBY1 170913Z 00000KT 02/01 A3004 RMK A01 T00200008  RH  091%=      5-min Rain = 0
KBY1 170914Z 00000KT 02/01 A3004 RMK A01 T00190005  RH  090%=      5-min Rain = 0
KBY1 170915Z 00000KT 02/00 A3004 RMK A01 T00170003  RH  090%=      5-min Rain = 0
KBY1 170916Z 00000KT 02/00 A3004 RMK A01 T00160002  RH  090%=      5-min Rain = 0
KBY1 170917Z 00000KT 02/00 A3004 RMK A01 T00150000  RH  090%=      5-min Rain = 0
KBY1 170918Z 00000KT 01/00 A3004 RMK A01 T00140000  RH  090%=      5-min Rain = 0
KBY1 170919Z 03000KT 01/00 A3004 RMK A01 T00140001  RH  091%=      5-min Rain = 0
KBY1 170920Z 01001KT 01/00 A3004 RMK A01 T00140002  RH  092%=      5-min Rain = 0
KBY1 170921Z 02001KT 01/00 A3004 RMK A01 T00140003  RH  092%=      5-min Rain = 0
KBY1 170922Z 01001KT 02/01 A3004 RMK A01 T00150005  RH  093%=      5-min Rain = 0
KBY1 170923Z 36001KT 02/01 A3004 RMK A01 T00170008  RH  094%=      5-min Rain = 0
KBY1 170924Z 34001KT 02/01 A3004 RMK A01 T00190010  RH  094%=      5-min Rain = 0
KBY1 170925Z 33001KT 02/01 A3004 RMK A01 T00200011  RH  094%=      5-min Rain = 0
KBY1 170926Z 32002KT 02/01 A3004 RMK A01 T00210012  RH  094%=      5-min Rain = 0
KBY1 170927Z 32002KT 02/01 A3004 RMK A01 T00220011  RH  093%=      5-min Rain = 0
KBY1 170928Z 33002KT 02/01 A3004 RMK A01 T00220010  RH  092%=      5-min Rain = 0
KBY1 170929Z 32002KT 02/01 A3004 RMK A01 T00210010  RH  092%=      5-min Rain = 0
KBY1 170930Z 31001KT 02/01 A3004 RMK A01 T00220011  RH  092%=      5-min Rain = 0
KBY1 170931Z 32001KT 02/01 A3004 RMK A01 T00240011  RH  092%=      5-min Rain = 0
KBY1 170932Z 31001KT 02/01 A3004 RMK A01 T00240011  RH  091%=      5-min Rain = 0
KBY1 170933Z 32002KT 03/01 A3004 RMK A01 T00250011  RH  091%=      5-min Rain = 0
KBY1 170934Z 33002KT 03/01 A3004 RMK A01 T00260012  RH  090%=      5-min Rain = 0
KBY1 170935Z 34002KT 03/01 A3004 RMK A01 T00260012  RH  090%=      5-min Rain = 0
KBY1 170936Z 34001KT 03/01 A3004 RMK A01 T00270011  RH  090%=      5-min Rain = 0
KBY1 170937Z 33000KT 03/01 A3004 RMK A01 T00270011  RH  089%=      5-min Rain = 0
KBY1 170938Z 00000KT 03/01 A3004 RMK A01 T00270009  RH  088%=      5-min Rain = 0
KBY1 170939Z 00000KT 03/01 A3004 RMK A01 T00250007  RH  087%=      5-min Rain = 0
KBY1 170940Z 00000KT 02/00 A3004 RMK A01 T00240004  RH  087%=      5-min Rain = 0
KBY1 170941Z 00000KT 02/00 A3004 RMK A01 T00220001  RH  086%=      5-min Rain = 0
KBY1 170942Z 00000KT 02/00 A3004 RMK A01 T001900-0  RH  087%=      5-min Rain = 0
KBY1 170943Z 00000KT 02/M00 A3004 RMK A01 T00171002  RH  088%=      5-min Rain = 0
KBY1 170944Z 00000KT 02/M00 A3004 RMK A01 T00151001  RH  089%=      5-min Rain = 0
KBY1 170945Z 00000KT 02/00 A3004 RMK A01 T00150000  RH  090%=      5-min Rain = 0
KBY1 170946Z 00000KT 01/00 A3004 RMK A01 T00140000  RH  090%=      5-min Rain = 0
KBY1 170947Z 24000KT 01/00 A3004 RMK A01 T00140001  RH  091%=      5-min Rain = 0
KBY1 170948Z 24000KT 01/00 A3004 RMK A01 T00130000  RH  091%=      5-min Rain = 0
KBY1 170949Z 00000KT 01/M00 A3004 RMK A01 T00121001  RH  091%=      5-min Rain = 0
KBY1 170950Z 00000KT 01/M00 A3004 RMK A01 T00111001  RH  092%=      5-min Rain = 0
KBY1 170951Z 00000KT 01/00 A3004 RMK A01 T001000-0  RH  093%=      5-min Rain = 0
KBY1 170952Z 00000KT 01/00 A3003 RMK A01 T00110001  RH  093%=      5-min Rain = 0
KBY1 170953Z 00000KT 01/00 A3003 RMK A01 T00100001  RH  094%=      5-min Rain = 0
KBY1 170954Z 00000KT 01/00 A3003 RMK A01 T00110002  RH  094%=      5-min Rain = 0
KBY1 170955Z 22001KT 01/00 A3003 RMK A01 T00110002  RH  094%=      5-min Rain = 0
KBY1 170956Z 00000KT 01/00 A3003 RMK A01 T00110002  RH  094%=      5-min Rain = 0
KBY1 170957Z 00000KT 01/00 A3003 RMK A01 T00110002  RH  094%=      5-min Rain = 0
KBY1 170958Z 00000KT 01/00 A3003 RMK A01 T00110002  RH  094%=      5-min Rain = 0
KBY1 170959Z 00000KT 01/00 A3003 RMK A01 T00100001  RH  094%=      5-min Rain = 0
KBY1 171000Z 00000KT 01/00 A3003 RMK A01 T000900-0  RH  093%=      5-min Rain = 0
KBY1 171001Z 00000KT 01/M00 A3003 RMK A01 T00091001  RH  093%=      5-min Rain = 0
KBY1 171002Z 00000KT 01/M00 A3003 RMK A01 T00081001  RH  093%=      5-min Rain = 0
KBY1 171003Z 00000KT 01/M00 A3003 RMK A01 T00081001  RH  094%=      5-min Rain = 0
KBY1 171004Z 00000KT 01/M00 A3003 RMK A01 T00081001  RH  094%=      5-min Rain = 0
KBY1 171005Z 00000KT 01/00 A3003 RMK A01 T000800-0  RH  094%=      5-min Rain = 0
KBY1 171006Z 00000KT 01/00 A3003 RMK A01 T00080001  RH  095%=      5-min Rain = 0
KBY1 171007Z 00000KT 01/00 A3003 RMK A01 T00090001  RH  095%=      5-min Rain = 0
KBY1 171008Z 00000KT 01/M00 A3003 RMK A01 T00071001  RH  094%=      5-min Rain = 0
KBY1 171009Z 00000KT 01/M00 A3003 RMK A01 T00071002  RH  094%=      5-min Rain = 0
KBY1 171010Z 00000KT 01/M00 A3002 RMK A01 T00071002  RH  094%=      5-min Rain = 0
KBY1 171011Z 00000KT 01/M00 A3002 RMK A01 T00071001  RH  094%=      5-min Rain = 0
KBY1 171012Z 00000KT 01/M00 A3002 RMK A01 T00071001  RH  095%=      5-min Rain = 0
KBY1 171013Z 36001KT 01/00 A3002 RMK A01 T00070000  RH  095%=      5-min Rain = 0
KBY1 171014Z 35001KT 01/00 A3002 RMK A01 T00070000  RH  095%=      5-min Rain = 0
KBY1 171015Z 34002KT 01/00 A3002 RMK A01 T00070001  RH  095%=      5-min Rain = 0
KBY1 171016Z 33002KT 01/00 A3002 RMK A01 T00080001  RH  095%=      5-min Rain = 0
KBY1 171017Z 33002KT 01/00 A3002 RMK A01 T00090003  RH  096%=      5-min Rain = 0
KBY1 171018Z 33002KT 01/01 A3002 RMK A01 T00100005  RH  096%=      5-min Rain = 0
KBY1 171019Z 34003KT 01/01 A3002 RMK A01 T00110005  RH  096%=      5-min Rain = 0
KBY1 171020Z 35002KT 01/00 A3002 RMK A01 T00110004  RH  095%=      5-min Rain = 0
KBY1 171021Z 33003KT 01/00 A3002 RMK A01 T00110003  RH  094%=      5-min Rain = 0
KBY1 171022Z 32003KT 01/00 A3002 RMK A01 T00120003  RH  094%=      5-min Rain = 0
KBY1 171023Z 32003KT 01/01 A3002 RMK A01 T00130005  RH  094%=      5-min Rain = 0
KBY1 171024Z 31003KT 02/01 A3002 RMK A01 T00160008  RH  095%=      5-min Rain = 0
KBY1 171025Z 32002KT 02/01 A3002 RMK A01 T00190011  RH  095%=      5-min Rain = 0
KBY1 171026Z 31002KT 02/01 A3002 RMK A01 T00220013  RH  094%=      5-min Rain = 0
KBY1 171027Z 30002KT 03/01 A3002 RMK A01 T00250013  RH  092%=      5-min Rain = 0
KBY1 171028Z 27002KT 03/01 A3002 RMK A01 T00260011  RH  090%=      5-min Rain = 0
KBY1 171029Z 23001KT 03/01 A3002 RMK A01 T00270010  RH  089%=      5-min Rain = 0
KBY1 171030Z 20001KT 03/01 A3002 RMK A01 T00280009  RH  087%=      5-min Rain = 0
KBY1 171031Z 20002KT 03/01 A3002 RMK A01 T00280006  RH  086%=      5-min Rain = 0
KBY1 171032Z 23001KT 03/00 A3002 RMK A01 T00270004  RH  085%=      5-min Rain = 0
KBY1 171033Z 30001KT 03/01 A3002 RMK A01 T00280006  RH  085%=      5-min Rain = 0
KBY1 171034Z 27002KT 03/01 A3002 RMK A01 T00300006  RH  084%=      5-min Rain = 0
KBY1 171035Z 26002KT 03/01 A3002 RMK A01 T00300005  RH  084%=      5-min Rain = 0
KBY1 171036Z 28002KT 03/00 A3002 RMK A01 T00280004  RH  084%=      5-min Rain = 0
KBY1 171037Z 28001KT 03/00 A3002 RMK A01 T00270004  RH  085%=      5-min Rain = 0
KBY1 171038Z 26002KT 03/01 A3002 RMK A01 T00270005  RH  086%=      5-min Rain = 0
KBY1 171039Z 28001KT 03/01 A3002 RMK A01 T00270005  RH  086%=      5-min Rain = 0
KBY1 171040Z 27000KT 03/01 A3002 RMK A01 T00270005  RH  085%=      5-min Rain = 0
KBY1 171041Z 00000KT 03/01 A3002 RMK A01 T00270005  RH  085%=      5-min Rain = 0
KBY1 171042Z 00000KT 03/00 A3002 RMK A01 T00270004  RH  085%=      5-min Rain = 0
KBY1 171043Z 22000KT 03/00 A3001 RMK A01 T00250002  RH  085%=      5-min Rain = 0
KBY1 171044Z 22001KT 02/00 A3001 RMK A01 T00240001  RH  085%=      5-min Rain = 0
KBY1 171045Z 22002KT 02/M00 A3001 RMK A01 T00211002  RH  085%=      5-min Rain = 0
KBY1 171046Z 23001KT 02/M00 A3001 RMK A01 T00181004  RH  085%=      5-min Rain = 0
KBY1 171047Z 24001KT 01/M01 A3001 RMK A01 T00141006  RH  087%=      5-min Rain = 0
KBY1 171048Z 24001KT 01/M01 A3001 RMK A01 T00111006  RH  088%=      5-min Rain = 0
KBY1 171049Z 25001KT 01/M01 A3001 RMK A01 T00091007  RH  090%=      5-min Rain = 0
KBY1 171050Z 24001KT 01/M01 A3001 RMK A01 T00071006  RH  091%=      5-min Rain = 0
KBY1 171051Z 24001KT 01/M01 A3001 RMK A01 T00071005  RH  092%=      5-min Rain = 0
KBY1 171052Z 23001KT 01/M00 A3001 RMK A01 T00071004  RH  093%=      5-min Rain = 0
KBY1 171053Z 23001KT 01/M00 A3001 RMK A01 T00061004  RH  093%=      5-min Rain = 0
KBY1 171054Z 24001KT 01/M00 A3001 RMK A01 T00061004  RH  093%=      5-min Rain = 0
KBY1 171055Z 25001KT 01/M00 A3001 RMK A01 T00061003  RH  094%=      5-min Rain = 0
KBY1 171056Z 29001KT 01/M00 A3001 RMK A01 T00051003  RH  094%=      5-min Rain = 0
KBY1 171057Z 35000KT 01/M00 A3001 RMK A01 T00051002  RH  095%=      5-min Rain = 0
KBY1 171058Z 35001KT 01/M00 A3001 RMK A01 T00061001  RH  095%=      5-min Rain = 0
KBY1 171059Z 01001KT 01/00 A3001 RMK A01 T00070000  RH  095%=      5-min Rain = 0
KBY1 171100Z 02001KT 01/00 A3001 RMK A01 T00080002  RH  096%=      5-min Rain = 0
KBY1 171101Z 01001KT 01/00 A3001 RMK A01 T00080002  RH  095%=      5-min Rain = 0
KBY1 171102Z 02001KT 01/00 A3001 RMK A01 T00080001  RH  095%=      5-min Rain = 0
KBY1 171103Z 03001KT 01/00 A3001 RMK A01 T00080001  RH  095%=      5-min Rain = 0
KBY1 171104Z 02001KT 01/00 A3001 RMK A01 T00070000  RH  095%=      5-min Rain = 0
KBY1 171105Z 01000KT 01/00 A3001 RMK A01 T00070000  RH  095%=      5-min Rain = 0
KBY1 171106Z 00000KT 01/00 A3001 RMK A01 T000700-0  RH  095%=      5-min Rain = 0
KBY1 171107Z 00000KT 01/00 A3001 RMK A01 T000700-0  RH  095%=      5-min Rain = 0
KBY1 171108Z 00000KT 01/00 A3001 RMK A01 T00070000  RH  095%=      5-min Rain = 0
KBY1 171109Z 00000KT 01/00 A3001 RMK A01 T00070000  RH  095%=      5-min Rain = 0
KBY1 171110Z 36001KT 01/00 A3001 RMK A01 T000700-0  RH  095%=      5-min Rain = 0
KBY1 171111Z 36000KT 01/00 A3001 RMK A01 T00070000  RH  095%=      5-min Rain = 0
KBY1 171112Z 36000KT 01/00 A3001 RMK A01 T00070000  RH  095%=      5-min Rain = 0
KBY1 171113Z 00000KT 01/00 A3001 RMK A01 T00070000  RH  095%=      5-min Rain = 0
KBY1 171114Z 00000KT 01/00 A3001 RMK A01 T000700-0  RH  095%=      5-min Rain = 0
KBY1 171115Z 00000KT 01/M00 A3001 RMK A01 T00061001  RH  095%=      5-min Rain = 0
KBY1 171116Z 00000KT 01/M00 A3001 RMK A01 T00061001  RH  095%=      5-min Rain = 0
KBY1 171117Z 00000KT 01/M00 A3001 RMK A01 T00061002  RH  095%=      5-min Rain = 0
KBY1 171118Z 00000KT 01/M00 A3001 RMK A01 T00061002  RH  095%=      5-min Rain = 0
KBY1 171119Z 00000KT 01/M00 A3001 RMK A01 T00061002  RH  095%=      5-min Rain = 0
KBY1 171120Z 00000KT 01/M00 A3001 RMK A01 T00061001  RH  095%=      5-min Rain = 0
KBY1 171121Z 17000KT 01/M00 A3001 RMK A01 T00061001  RH  095%=      5-min Rain = 0
KBY1 171122Z 17001KT 01/00 A3001 RMK A01 T000700-0  RH  095%=      5-min Rain = 0
KBY1 171123Z 18001KT 01/M00 A3001 RMK A01 T00071001  RH  095%=      5-min Rain = 0
KBY1 171124Z 19001KT 01/M00 A3001 RMK A01 T00061003  RH  094%=      5-min Rain = 0
KBY1 171125Z 21001KT 01/M00 A3001 RMK A01 T00051003  RH  094%=      5-min Rain = 0
KBY1 171126Z 22001KT 01/M00 A3001 RMK A01 T00061002  RH  095%=      5-min Rain = 0
KBY1 171127Z 24001KT 01/M00 A3001 RMK A01 T00061001  RH  095%=      5-min Rain = 0
KBY1 171128Z 26000KT 01/00 A3001 RMK A01 T00070000  RH  095%=      5-min Rain = 0
KBY1 171129Z 00000KT 01/00 A3001 RMK A01 T00070001  RH  095%=      5-min Rain = 0
KBY1 171130Z 00000KT 01/00 A3001 RMK A01 T00080001  RH  095%=      5-min Rain = 0
KBY1 171131Z 00000KT 01/00 A3001 RMK A01 T00080002  RH  095%=      5-min Rain = 0
KBY1 171132Z 00000KT 01/00 A3001 RMK A01 T00080002  RH  095%=      5-min Rain = 0
KBY1 171133Z 00000KT 01/00 A3001 RMK A01 T00090002  RH  095%=      5-min Rain = 0
KBY1 171134Z 00000KT 01/00 A3001 RMK A01 T00090002  RH  095%=      5-min Rain = 0
KBY1 171135Z 00000KT 01/00 A3001 RMK A01 T00090001  RH  095%=      5-min Rain = 0
KBY1 171136Z 00000KT 01/00 A3001 RMK A01 T00080001  RH  095%=      5-min Rain = 0
KBY1 171137Z 07000KT 01/00 A3001 RMK A01 T00080000  RH  095%=      5-min Rain = 0
KBY1 171138Z 00000KT 01/00 A30 RMK A01 T000800-0  RH  095%=      5-min Rain = 0
KBY1 171139Z 00000KT 01/M00 A30 RMK A01 T00071001  RH  094%=      5-min Rain = 0
KBY1 171140Z 00000KT 01/M00 A30 RMK A01 T00061002  RH  094%=      5-min Rain = 0
KBY1 171141Z 00000KT 01/M00 A30 RMK A01 T00061003  RH  094%=      5-min Rain = 0
KBY1 171142Z 00000KT 00/M00 A30 RMK A01 T00041004  RH  094%=      5-min Rain = 0
KBY1 171143Z 00000KT 00/M01 A30 RMK A01 T00031007  RH  094%=      5-min Rain = 0
KBY1 171144Z 00000KT 00/M01 A3001 RMK A01 T00011008  RH  093%=      5-min Rain = 0
KBY1 171145Z 00000KT 00/01 A30 RMK A01 T000000-9  RH  093%=      5-min Rain = 0
KBY1 171146Z 00000KT M00/M01 A30 RMK A01 T10011010  RH  094%=      5-min Rain = 0
KBY1 171147Z 00000KT M00/M01 A30 RMK A01 T10011010  RH  094%=      5-min Rain = 0
KBY1 171148Z 00000KT M00/M01 A30 RMK A01 T10011009  RH  094%=      5-min Rain = 0
KBY1 171149Z 00000KT M00/M01 A30 RMK A01 T10011008  RH  095%=      5-min Rain = 0
KBY1 171150Z 00000KT M00/M01 A30 RMK A01 T10011008  RH  095%=      5-min Rain = 0
KBY1 171151Z 00000KT 00/01 A30 RMK A01 T00-000-7  RH  096%=      5-min Rain = 0
KBY1 171152Z 00000KT 00/M01 A30 RMK A01 T00011005  RH  096%=      5-min Rain = 0
KBY1 171153Z 00000KT 00/M00 A30 RMK A01 T00011004  RH  096%=      5-min Rain = 0
KBY1 171154Z 00000KT 00/M00 A30 RMK A01 T00011004  RH  096%=      5-min Rain = 0
KBY1 171155Z 00000KT 00/01 A30 RMK A01 T000000-5  RH  096%=      5-min Rain = 0
KBY1 171156Z 00000KT 00/01 A30 RMK A01 T00-000-7  RH  096%=      5-min Rain = 0
KBY1 171157Z 00000KT M00/M01 A3001 RMK A01 T10011007  RH  096%=      5-min Rain = 0
KBY1 171158Z 35001KT M00/M01 A3001 RMK A01 T10011008  RH  096%=      5-min Rain = 0
KBY1 171159Z 35001KT M00/M01 A3001 RMK A01 T10021008  RH  096%=      5-min Rain = 0
KBY1 171200Z 35001KT M00/M01 A3001 RMK A01 T10021008  RH  096%=      5-min Rain = 0
KBY1 171201Z 35001KT M00/M01 A3001 RMK A01 T10021008  RH  096%=      5-min Rain = 0
KBY1 171202Z 35001KT M00/M01 A30 RMK A01 T10031009  RH  096%=      5-min Rain = 0
KBY1 171203Z 35001KT M00/M01 A30 RMK A01 T10031008  RH  096%=      5-min Rain = 0
KBY1 171204Z 35000KT M00/M01 A30 RMK A01 T10031008  RH  096%=      5-min Rain = 0
KBY1 171205Z 35000KT M00/M01 A30 RMK A01 T10021007  RH  096%=      5-min Rain = 0
KBY1 171206Z 04001KT M00/M01 A30 RMK A01 T10021007  RH  096%=      5-min Rain = 0
KBY1 171207Z 04001KT M00/M01 A30 RMK A01 T10021007  RH  096%=      5-min Rain = 0
KBY1 171208Z 03001KT M00/M01 A30 RMK A01 T10021007  RH  097%=      5-min Rain = 0
KBY1 171209Z 04002KT M00/M01 A30 RMK A01 T10011006  RH  097%=      5-min Rain = 0
KBY1 171210Z 06002KT 00/01 A30 RMK A01 T00-000-5  RH  097%=      5-min Rain = 0
KBY1 171211Z 05002KT M00/M01 A30 RMK A01 T10011005  RH  097%=      5-min Rain = 0
KBY1 171212Z 05002KT 00/01 A30 RMK A01 T00-000-5  RH  097%=      5-min Rain = 0
KBY1 171213Z 04002KT 00/M00 A30 RMK A01 T00011004  RH  097%=      5-min Rain = 0
KBY1 171214Z 03002KT 00/M00 A30 RMK A01 T00011003  RH  097%=      5-min Rain = 0
KBY1 171215Z 03001KT 00/M00 A30 RMK A01 T00021002  RH  097%=      5-min Rain = 0
KBY1 171216Z 03001KT 00/M00 A30 RMK A01 T00021002  RH  097%=      5-min Rain = 0
KBY1 171217Z 04001KT 00/M00 A30 RMK A01 T00031002  RH  097%=      5-min Rain = 0
KBY1 171218Z 06001KT 00/M00 A30 RMK A01 T00031001  RH  097%=      5-min Rain = 0
KBY1 171219Z 07001KT 00/M00 A30 RMK A01 T00031001  RH  097%=      5-min Rain = 0
KBY1 171220Z 08000KT 00/M00 A30 RMK A01 T00031002  RH  097%=      5-min Rain = 0
KBY1 171221Z 04000KT 00/M00 A30 RMK A01 T00021003  RH  096%=      5-min Rain = 0
KBY1 171222Z 04000KT 00/M00 A30 RMK A01 T00021004  RH  096%=      5-min Rain = 0
KBY1 171223Z 00001KT 00/M00 A30 RMK A01 T00031002  RH  096%=      5-min Rain = 0
KBY1 171224Z 01002KT 00/M00 A30 RMK A01 T00041001  RH  097%=      5-min Rain = 0
KBY1 171225Z 00002KT 01/00 A30 RMK A01 T00050001  RH  097%=      5-min Rain = 0
KBY1 171226Z 00001KT 01/00 A30 RMK A01 T00080004  RH  097%=      5-min Rain = 0
KBY1 171227Z 02002KT 01/01 A30 RMK A01 T00090005  RH  097%=      5-min Rain = 0
KBY1 171228Z 02002KT 01/01 A30 RMK A01 T00100006  RH  097%=      5-min Rain = 0
KBY1 171229Z 01003KT 01/01 A30 RMK A01 T00130008  RH  097%=      5-min Rain = 0
KBY1 171230Z 02002KT 01/01 A30 RMK A01 T00140009  RH  096%=      5-min Rain = 0
KBY1 171231Z 03002KT 02/01 A30 RMK A01 T00150008  RH  095%=      5-min Rain = 0
KBY1 171232Z 03003KT 02/01 A30 RMK A01 T00150008  RH  095%=      5-min Rain = 0
KBY1 171233Z 03002KT 02/01 A30 RMK A01 T00160008  RH  094%=      5-min Rain = 0
KBY1 171234Z 02001KT 02/01 A30 RMK A01 T00170008  RH  094%=      5-min Rain = 0
KBY1 171235Z 01000KT 02/01 A30 RMK A01 T00170005  RH  092%=      5-min Rain = 0
KBY1 171236Z 28000KT 01/M00 A30 RMK A01 T00131001  RH  090%=      5-min Rain = 0
KBY1 171237Z 00000KT 01/00 A30 RMK A01 T00130000  RH  092%=      5-min Rain = 0
KBY1 171238Z 24000KT 01/M00 A30 RMK A01 T00121001  RH  091%=      5-min Rain = 0
KBY1 171239Z 00000KT 01/M01 A30 RMK A01 T00091005  RH  090%=      5-min Rain = 0
KBY1 171240Z 00000KT 01/M01 A30 RMK A01 T00061009  RH  090%=      5-min Rain = 0
KBY1 171241Z 23000KT 01/M01 A30 RMK A01 T00051007  RH  091%=      5-min Rain = 0
KBY1 171242Z 24002KT 01/M01 A30 RMK A01 T00061005  RH  093%=      5-min Rain = 0
KBY1 171243Z 24000KT 01/M00 A30 RMK A01 T00061004  RH  093%=      5-min Rain = 0
KBY1 171244Z 00000KT 01/M00 A30 RMK A01 T00051004  RH  094%=      5-min Rain = 0
KBY1 171245Z 00000KT 01/M00 A30 RMK A01 T00061003  RH  094%=      5-min Rain = 0
KBY1 171246Z 00000KT 01/M00 A30 RMK A01 T00051003  RH  094%=      5-min Rain = 0
KBY1 171247Z 00000KT 01/M00 A30 RMK A01 T00061003  RH  094%=      5-min Rain = 0
KBY1 171248Z 00000KT 01/M00 A30 RMK A01 T00051003  RH  094%=      5-min Rain = 0
KBY1 171249Z 00000KT 00/M01 A30 RMK A01 T00041006  RH  093%=      5-min Rain = 0
KBY1 171250Z 00000KT 00/M01 A30 RMK A01 T00031007  RH  093%=      5-min Rain = 0
KBY1 171251Z 00000KT 00/M01 A30 RMK A01 T00021008  RH  093%=      5-min Rain = 0
KBY1 171252Z 00000KT 00/M01 A30 RMK A01 T00011009  RH  093%=      5-min Rain = 0
KBY1 171253Z 00000KT 00/M01 A30 RMK A01 T00011009  RH  093%=      5-min Rain = 0
KBY1 171254Z 00000KT 00/01 A30 RMK A01 T000000-9  RH  093%=      5-min Rain = 0
KBY1 171255Z 00000KT 00/01 A30 RMK A01 T000000-9  RH  094%=      5-min Rain = 0
KBY1 171256Z 00000KT 00/01 A30 RMK A01 T00-000-9  RH  094%=      5-min Rain = 0
KBY1 171257Z 00000KT 00/01 A30 RMK A01 T00-000-8  RH  094%=      5-min Rain = 0
KBY1 171258Z 00000KT 00/M01 A30 RMK A01 T00011007  RH  095%=      5-min Rain = 0
KBY1 171259Z 00000KT 00/M01 A30 RMK A01 T00011006  RH  095%=      5-min Rain = 0
KBY1 171300Z 24000KT 00/M01 A30 RMK A01 T00011005  RH  095%=      5-min Rain = 0
KBY1 171301Z 24001KT 00/M01 A30 RMK A01 T00021005  RH  095%=      5-min Rain = 0
KBY1 171302Z 25000KT 00/M00 A30 RMK A01 T00021004  RH  096%=      5-min Rain = 0
KBY1 171303Z 26000KT 00/M00 A30 RMK A01 T00031003  RH  096%=      5-min Rain = 0
KBY1 171304Z 27000KT 00/M00 A30 RMK A01 T00031002  RH  096%=      5-min Rain = 0
KBY1 171305Z 29000KT 01/00 A30 RMK A01 T000500-0  RH  096%=      5-min Rain = 0
KBY1 171306Z 29000KT 01/00 A30 RMK A01 T000500-0  RH  096%=      5-min Rain = 0
KBY1 171307Z 32001KT 01/00 A30 RMK A01 T00050000  RH  096%=      5-min Rain = 0
KBY1 171308Z 32001KT 01/00 A30 RMK A01 T00060000  RH  096%=      5-min Rain = 0
KBY1 171309Z 30001KT 01/00 A30 RMK A01 T00060000  RH  096%=      5-min Rain = 0
KBY1 171310Z 31001KT 01/00 A30 RMK A01 T00070001  RH  096%=      5-min Rain = 0
KBY1 171311Z 31001KT 01/01 A30 RMK A01 T00090005  RH  097%=      5-min Rain = 0
KBY1 171312Z 30001KT 01/01 A30 RMK A01 T00120008  RH  097%=      5-min Rain = 0
KBY1 171313Z 31001KT 01/01 A30 RMK A01 T00140010  RH  097%=      5-min Rain = 0
KBY1 171314Z 31000KT 02/01 A30 RMK A01 T00150010  RH  097%=      5-min Rain = 0
KBY1 171315Z 00000KT 02/01 A30 RMK A01 T00160011  RH  096%=      5-min Rain = 0
KBY1 171316Z 25000KT 02/01 A30 RMK A01 T00180012  RH  096%=      5-min Rain = 0
KBY1 171317Z 00000KT 02/01 A30 RMK A01 T00190010  RH  094%=      5-min Rain = 0
KBY1 171318Z 00000KT 02/00 A30 RMK A01 T00160003  RH  091%=      5-min Rain = 0
KBY1 171319Z 00000KT 01/M00 A30 RMK A01 T00131002  RH  090%=      5-min Rain = 0
KBY1 171320Z 00000KT 01/M01 A30 RMK A01 T00111005  RH  089%=      5-min Rain = 0
KBY1 171321Z 26000KT 01/M01 A30 RMK A01 T00081008  RH  088%=      5-min Rain = 0
KBY1 171322Z 27001KT 01/M01 A30 RMK A01 T00071009  RH  089%=      5-min Rain = 0
KBY1 171323Z 28000KT 01/M01 A30 RMK A01 T00071007  RH  090%=      5-min Rain = 0
KBY1 171324Z 27001KT 01/M01 A30 RMK A01 T00081005  RH  091%=      5-min Rain = 0
KBY1 171325Z 28002KT 01/M00 A30 RMK A01 T00101002  RH  092%=      5-min Rain = 0
KBY1 171326Z 29002KT 01/00 A30 RMK A01 T00110001  RH  093%=      5-min Rain = 0
KBY1 171327Z 29002KT 01/00 A30 RMK A01 T00130003  RH  093%=      5-min Rain = 0
KBY1 171328Z 29002KT 01/01 A30 RMK A01 T00140005  RH  093%=      5-min Rain = 0
KBY1 171329Z 29002KT 02/01 A30 RMK A01 T00170009  RH  094%=      5-min Rain = 0
KBY1 171330Z 30002KT 02/01 A30 RMK A01 T00210012  RH  094%=      5-min Rain = 0
KBY1 171331Z 30002KT 02/01 A30 RMK A01 T00240014  RH  093%=      5-min Rain = 0
KBY1 171332Z 30003KT 03/01 A30 RMK A01 T00270014  RH  091%=      5-min Rain = 0
KBY1 171333Z 30002KT 03/01 A30 RMK A01 T00290014  RH  090%=      5-min Rain = 0
KBY1 171334Z 30002KT 03/02 A30 RMK A01 T00320015  RH  089%=      5-min Rain = 0
KBY1 171335Z 31002KT 03/02 A30 RMK A01 T00340016  RH  088%=      5-min Rain = 0
KBY1 171336Z 31002KT 04/02 A30 RMK A01 T00370016  RH  086%=      5-min Rain = 0
KBY1 171337Z 33001KT 04/01 A30 RMK A01 T00390014  RH  084%=      5-min Rain = 0
KBY1 171338Z 28001KT 04/01 A30 RMK A01 T00410014  RH  083%=      5-min Rain = 0
KBY1 171339Z 21001KT 04/01 A30 RMK A01 T00410014  RH  083%=      5-min Rain = 0
KBY1 171340Z 20002KT 04/02 A30 RMK A01 T00410015  RH  083%=      5-min Rain = 0
KBY1 171341Z 20003KT 04/02 A30 RMK A01 T00410016  RH  084%=      5-min Rain = 0
KBY1 171342Z 22002KT 04/02 A30 RMK A01 T00400016  RH  084%=      5-min Rain = 0
KBY1 171343Z 22002KT 04/01 A30 RMK A01 T00390014  RH  084%=      5-min Rain = 0
KBY1 171344Z 21003KT 04/01 A30 RMK A01 T00380014  RH  084%=      5-min Rain = 0
KBY1 171345Z 21002KT 04/02 A30 RMK A01 T00380015  RH  085%=      5-min Rain = 0
KBY1 171346Z 21002KT 04/02 A30 RMK A01 T00370015  RH  085%=      5-min Rain = 0
KBY1 171347Z 21001KT 04/01 A30 RMK A01 T00370014  RH  085%=      5-min Rain = 0
KBY1 171348Z 25001KT 04/01 A30 RMK A01 T00370014  RH  085%=      5-min Rain = 0
KBY1 171349Z 27001KT 04/01 A30 RMK A01 T00380013  RH  084%=      5-min Rain = 0
KBY1 171350Z 28001KT 04/01 A30 RMK A01 T00390013  RH  084%=      5-min Rain = 0
KBY1 171351Z 28002KT 04/01 A30 RMK A01 T00390013  RH  083%=      5-min Rain = 0
KBY1 171352Z 30002KT 04/01 A30 RMK A01 T00400013  RH  083%=      5-min Rain = 0
KBY1 171353Z 29002KT 04/02 A30 RMK A01 T00420015  RH  083%=      5-min Rain = 0
KBY1 171354Z 30003KT 04/02 A30 RMK A01 T00430015  RH  082%=      5-min Rain = 0
KBY1 171355Z 29002KT 05/02 A30 RMK A01 T00450015  RH  081%=      5-min Rain = 0
KBY1 171356Z 29002KT 05/02 A30 RMK A01 T00470016  RH  081%=      5-min Rain = 0
KBY1 171357Z 29003KT 05/02 A30 RMK A01 T00480016  RH  079%=      5-min Rain = 0
KBY1 171358Z 30002KT 05/02 A30 RMK A01 T00490015  RH  079%=      5-min Rain = 0
KBY1 171359Z 28002KT 05/02 A30 RMK A01 T00500015  RH  078%=      5-min Rain = 0
KBY1 171400Z 29002KT 05/02 A30 RMK A01 T00510015  RH  078%=      5-min Rain = 0
KBY1 171401Z 27002KT 05/02 A30 RMK A01 T00520016  RH  078%=      5-min Rain = 0
KBY1 171402Z 28001KT 05/02 A30 RMK A01 T00530017  RH  077%=      5-min Rain = 0
KBY1 171403Z 26001KT 05/02 A30 RMK A01 T00540016  RH  077%=      5-min Rain = 0
KBY1 171404Z 24001KT 06/02 A30 RMK A01 T00550018  RH  077%=      5-min Rain = 0
KBY1 171405Z 23001KT 05/02 A30 RMK A01 T00540017  RH  077%=      5-min Rain = 0
KBY1 171406Z 24002KT 05/02 A30 RMK A01 T00540017  RH  077%=      5-min Rain = 0
KBY1 171407Z 25002KT 06/02 A30 RMK A01 T00550017  RH  076%=      5-min Rain = 0
KBY1 171408Z 25003KT 06/02 A30 RMK A01 T00550017  RH  076%=      5-min Rain = 0
KBY1 171409Z 26002KT 06/02 A30 RMK A01 T00570018  RH  076%=      5-min Rain = 0
KBY1 171410Z 25002KT 06/02 A30 RMK A01 T00580018  RH  075%=      5-min Rain = 0
KBY1 171411Z 25002KT 06/02 A30 RMK A01 T00590018  RH  075%=      5-min Rain = 0
KBY1 171412Z 26002KT 06/02 A30 RMK A01 T00600019  RH  075%=      5-min Rain = 0
KBY1 171413Z 25002KT 06/02 A30 RMK A01 T00610020  RH  075%=      5-min Rain = 0
KBY1 171414Z 25002KT 06/02 A30 RMK A01 T00620019  RH  074%=      5-min Rain = 0
KBY1 171415Z 25002KT 06/02 A3001 RMK A01 T00630020  RH  074%=      5-min Rain = 0
KBY1 171416Z 25002KT 06/02 A3001 RMK A01 T00640020  RH  074%=      5-min Rain = 0
KBY1 171417Z 26002KT 06/02 A3001 RMK A01 T00640020  RH  073%=      5-min Rain = 0
KBY1 171418Z 26002KT 07/02 A3001 RMK A01 T00650020  RH  073%=      5-min Rain = 0
KBY1 171419Z 27001KT 07/02 A3001 RMK A01 T00660019  RH  072%=      5-min Rain = 0
KBY1 171420Z 28002KT 07/02 A3001 RMK A01 T00670017  RH  070%=      5-min Rain = 0
KBY1 171421Z 26001KT 07/02 A3001 RMK A01 T00680017  RH  070%=      5-min Rain = 0
KBY1 171422Z 24002KT 07/02 A3001 RMK A01 T00680017  RH  070%=      5-min Rain = 0
KBY1 171423Z 25002KT 07/02 A3001 RMK A01 T00690015  RH  068%=      5-min Rain = 0
KBY1 171424Z 26002KT 07/02 A30 RMK A01 T00710016  RH  068%=      5-min Rain = 0
KBY1 171425Z 25001KT 07/02 A3001 RMK A01 T00720016  RH  067%=      5-min Rain = 0
KBY1 171426Z 20000KT 07/02 A3001 RMK A01 T00740016  RH  067%=      5-min Rain = 0
KBY1 171427Z 18001KT 08/02 A30 RMK A01 T00750019  RH  068%=      5-min Rain = 0
KBY1 171428Z 17001KT 08/02 A3001 RMK A01 T00770022  RH  068%=      5-min Rain = 0
KBY1 171429Z 19001KT 08/02 A3001 RMK A01 T00780021  RH  067%=      5-min Rain = 0
KBY1 171430Z 16001KT 08/02 A3001 RMK A01 T00790021  RH  067%=      5-min Rain = 0
KBY1 171431Z 19001KT 08/02 A30 RMK A01 T00810023  RH  067%=      5-min Rain = 0
KBY1 171432Z 17001KT 08/02 A30 RMK A01 T00830023  RH  066%=      5-min Rain = 0
KBY1 171433Z 18001KT 08/02 A30 RMK A01 T00840021  RH  065%=      5-min Rain = 0
KBY1 171434Z 18000KT 09/02 A30 RMK A01 T00850021  RH  064%=      5-min Rain = 0
KBY1 171435Z 12001KT 09/02 A30 RMK A01 T00880022  RH  063%=      5-min Rain = 0
KBY1 171436Z 12001KT 09/02 A30 RMK A01 T00900023  RH  063%=      5-min Rain = 0
KBY1 171437Z 12001KT 09/02 A30 RMK A01 T00910023  RH  062%=      5-min Rain = 0
KBY1 171438Z 16002KT 09/02 A30 RMK A01 T00920024  RH  063%=      5-min Rain = 0
KBY1 171439Z 19002KT 09/03 A3001 RMK A01 T00930025  RH  062%=      5-min Rain = 0
KBY1 171440Z 19002KT 09/03 A3001 RMK A01 T00940025  RH  062%=      5-min Rain = 0
KBY1 171441Z 20001KT 09/02 A3001 RMK A01 T00940023  RH  061%=      5-min Rain = 0
KBY1 171442Z 22002KT 09/02 A3001 RMK A01 T00940023  RH  061%=      5-min Rain = 0
KBY1 171443Z 23001KT 09/02 A3001 RMK A01 T00940022  RH  061%=      5-min Rain = 0
KBY1 171444Z 21002KT 10/02 A3001 RMK A01 T00950023  RH  061%=      5-min Rain = 0
KBY1 171445Z 22001KT 10/02 A30 RMK A01 T00960024  RH  060%=      5-min Rain = 0
KBY1 171446Z 20000KT 10/03 A30 RMK A01 T00980025  RH  061%=      5-min Rain = 0
KBY1 171447Z 24001KT 10/03 A30 RMK A01 T01000026  RH  060%=      5-min Rain = 0
KBY1 171448Z 28001KT 10/03 A30 RMK A01 T01000027  RH  060%=      5-min Rain = 0
KBY1 171449Z 25001KT 10/03 A30 RMK A01 T01020025  RH  059%=      5-min Rain = 0
KBY1 171450Z 25003KT 10/03 A30 RMK A01 T01030026  RH  059%=      5-min Rain = 0
KBY1 171451Z 25002KT 10/02 A30 RMK A01 T01040024  RH  058%=      5-min Rain = 0
KBY1 171452Z 25002KT 11/02 A30 RMK A01 T01050023  RH  057%=      5-min Rain = 0
KBY1 171453Z 25002KT 11/02 A30 RMK A01 T01050023  RH  057%=      5-min Rain = 0
KBY1 171454Z 24003KT 11/03 A30 RMK A01 T01070025  RH  057%=      5-min Rain = 0
KBY1 171455Z 24003KT 11/02 A30 RMK A01 T01080024  RH  056%=      5-min Rain = 0
KBY1 171456Z 25002KT 11/02 A30 RMK A01 T01090024  RH  056%=      5-min Rain = 0
KBY1 171457Z 26003KT 11/02 A30 RMK A01 T01090024  RH  056%=      5-min Rain = 0
KBY1 171458Z 25004KT 11/03 A30 RMK A01 T01100025  RH  056%=      5-min Rain = 0
KBY1 171459Z 26003KT 11/02 A30 RMK A01 T01110024  RH  055%=      5-min Rain = 0
KBY1 171500Z 26004KT 11/02 A30 RMK A01 T01110024  RH  055%=      5-min Rain = 0
KBY1 171501Z 27005KT 11/02 A30 RMK A01 T01120024  RH  055%=      5-min Rain = 0
KBY1 171502Z 27004KT 11/02 A30 RMK A01 T01110024  RH  055%=      5-min Rain = 0
KBY1 171503Z 28004KT 11/03 A30 RMK A01 T01110025  RH  055%=      5-min Rain = 0
KBY1 171504Z 27003KT 11/03 A30 RMK A01 T01110025  RH  055%=      5-min Rain = 0
KBY1 171505Z 26002KT 11/03 A30 RMK A01 T01110025  RH  056%=      5-min Rain = 0
KBY1 171506Z 25003KT 11/03 A30 RMK A01 T01120026  RH  056%=      5-min Rain = 0
KBY1 171507Z 25003KT 11/03 A30 RMK A01 T01140028  RH  056%=      5-min Rain = 0
KBY1 171508Z 25004KT 12/03 A30 RMK A01 T01150028  RH  055%=      5-min Rain = 0
KBY1 171509Z 25004KT 12/03 A30 RMK A01 T01170029  RH  055%=      5-min Rain = 0
KBY1 171510Z 25002KT 12/03 A30 RMK A01 T01180028  RH  054%=      5-min Rain = 0
KBY1 171511Z 27002KT 12/03 A30 RMK A01 T01180030  RH  055%=      5-min Rain = 0
KBY1 171512Z 27002KT 12/03 A30 RMK A01 T01200031  RH  054%=      5-min Rain = 0
KBY1 171513Z 25004KT 12/03 A30 RMK A01 T01220030  RH  053%=      5-min Rain = 0
KBY1 171514Z 25004KT 12/03 A30 RMK A01 T01240032  RH  053%=      5-min Rain = 0
KBY1 171515Z 27002KT 13/03 A30 RMK A01 T01260033  RH  053%=      5-min Rain = 0
KBY1 171516Z 26003KT 13/03 A30 RMK A01 T01270032  RH  053%=      5-min Rain = 0
KBY1 171517Z 26003KT 13/03 A2999 RMK A01 T01270032  RH  052%=      5-min Rain = 0
KBY1 171518Z 25004KT 13/03 A2999 RMK A01 T01270033  RH  053%=      5-min Rain = 0
KBY1 171519Z 26004KT 13/03 A2999 RMK A01 T01280032  RH  052%=      5-min Rain = 0
KBY1 171520Z 27003KT 13/03 A2999 RMK A01 T01280034  RH  053%=      5-min Rain = 0
KBY1 171521Z 26002KT 13/03 A2999 RMK A01 T01300034  RH  052%=      5-min Rain = 0
KBY1 171522Z 30003KT 13/04 A2999 RMK A01 T01320036  RH  052%=      5-min Rain = 0
KBY1 171523Z 29005KT 14/03 A2999 RMK A01 T01350034  RH  050%=      5-min Rain = 0
KBY1 171524Z 27003KT 14/03 A2999 RMK A01 T01360033  RH  050%=      5-min Rain = 0
KBY1 171525Z 30004KT 14/03 A2999 RMK A01 T01380034  RH  050%=      5-min Rain = 0
KBY1 171526Z 29004KT 14/03 A2999 RMK A01 T01390034  RH  049%=      5-min Rain = 0
KBY1 171527Z 27003KT 14/04 A2999 RMK A01 T01420038  RH  050%=      5-min Rain = 0
KBY1 171528Z 29003KT 14/04 A2999 RMK A01 T01440036  RH  048%=      5-min Rain = 0
KBY1 171529Z 27004KT 15/04 A2999 RMK A01 T01450036  RH  048%=      5-min Rain = 0
KBY1 171530Z 26004KT 15/04 A2999 RMK A01 T01460036  RH  047%=      5-min Rain = 0
KBY1 171531Z 27004KT 15/03 A2999 RMK A01 T01460033  RH  047%=      5-min Rain = 0
KBY1 171532Z 28004KT 15/03 A2999 RMK A01 T01450033  RH  047%=      5-min Rain = 0
KBY1 171533Z 28004KT 15/03 A2999 RMK A01 T01450034  RH  047%=      5-min Rain = 0
KBY1 171534Z 30003KT 15/03 A2999 RMK A01 T01450034  RH  047%=      5-min Rain = 0
KBY1 171535Z 28003KT 15/04 A2999 RMK A01 T01460035  RH  047%=      5-min Rain = 0
KBY1 171536Z 27002KT 15/04 A2999 RMK A01 T01480036  RH  047%=      5-min Rain = 0
KBY1 171537Z 27004KT 15/04 A2999 RMK A01 T01500037  RH  047%=      5-min Rain = 0
KBY1 171538Z 26003KT 15/04 A2998 RMK A01 T01510035  RH  045%=      5-min Rain = 0
KBY1 171539Z 26004KT 15/04 A2998 RMK A01 T01520035  RH  045%=      5-min Rain = 0
KBY1 171540Z 26003KT 15/04 A2998 RMK A01 T01520035  RH  045%=      5-min Rain = 0
KBY1 171541Z 28003KT 15/04 A2998 RMK A01 T01540037  RH  046%=      5-min Rain = 0
KBY1 171542Z 27003KT 16/03 A2998 RMK A01 T01550034  RH  044%=      5-min Rain = 0
KBY1 171543Z 27004KT 16/03 A2998 RMK A01 T01560034  RH  044%=      5-min Rain = 0
KBY1 171544Z 26004KT 16/03 A2998 RMK A01 T01560034  RH  044%=      5-min Rain = 0
KBY1 171545Z 25004KT 16/04 A2998 RMK A01 T01560036  RH  045%=      5-min Rain = 0
KBY1 171546Z 23002KT 16/04 A2998 RMK A01 T01580036  RH  044%=      5-min Rain = 0
KBY1 171547Z 26002KT 16/04 A2998 RMK A01 T01600040  RH  045%=      5-min Rain = 0
KBY1 171548Z 24003KT 16/04 A2998 RMK A01 T01630037  RH  043%=      5-min Rain = 0
KBY1 171549Z 25002KT 16/04 A2998 RMK A01 T01620035  RH  043%=      5-min Rain = 0
KBY1 171550Z 23002KT 16/04 A2998 RMK A01 T01620037  RH  043%=      5-min Rain = 0
KBY1 171551Z 23003KT 16/04 A2998 RMK A01 T01640037  RH  043%=      5-min Rain = 0
KBY1 171552Z 26001KT 17/04 A2998 RMK A01 T01660038  RH  042%=      5-min Rain = 0
KBY1 171553Z 24001KT 17/04 A2998 RMK A01 T01660038  RH  042%=      5-min Rain = 0
KBY1 171554Z 26002KT 17/04 A2998 RMK A01 T01660037  RH  042%=      5-min Rain = 0
KBY1 171555Z 27002KT 17/04 A2998 RMK A01 T01670038  RH  042%=      5-min Rain = 0
KBY1 171556Z 23002KT 17/04 A2998 RMK A01 T01690039  RH  042%=      5-min Rain = 0
KBY1 171557Z 22002KT 17/04 A2998 RMK A01 T01700038  RH  041%=      5-min Rain = 0
KBY1 171558Z 20002KT 17/04 A2998 RMK A01 T01710037  RH  041%=      5-min Rain = 0
KBY1 171559Z 20002KT 17/04 A2998 RMK A01 T01730039  RH  041%=      5-min Rain = 0
KBY1 171600Z 24000KT 17/04 A2998 RMK A01 T01740037  RH  040%=      5-min Rain = 0
KBY1 171601Z 26001KT 17/04 A2998 RMK A01 T01740037  RH  040%=      5-min Rain = 0
KBY1 171602Z 23002KT 18/04 A2998 RMK A01 T01760042  RH  041%=      5-min Rain = 0
KBY1 171603Z 24002KT 18/04 A2997 RMK A01 T01780039  RH  039%=      5-min Rain = 0
KBY1 171604Z 18002KT 18/04 A2997 RMK A01 T01780038  RH  039%=      5-min Rain = 0
KBY1 171605Z 19002KT 18/04 A2997 RMK A01 T01790040  RH  040%=      5-min Rain = 0
KBY1 171606Z 14001KT 18/04 A2997 RMK A01 T01800042  RH  040%=      5-min Rain = 0
KBY1 171607Z 16001KT 18/04 A2997 RMK A01 T01820040  RH  039%=      5-min Rain = 0
KBY1 171608Z 11002KT 18/04 A2997 RMK A01 T01840041  RH  039%=      5-min Rain = 0
KBY1 171609Z 07003KT 19/04 A2997 RMK A01 T01850042  RH  039%=      5-min Rain = 0
KBY1 171610Z 08002KT 18/04 A2997 RMK A01 T01840039  RH  038%=      5-min Rain = 0
KBY1 171611Z 09002KT 18/04 A2997 RMK A01 T01840041  RH  039%=      5-min Rain = 0
KBY1 171612Z 13002KT 19/04 A2997 RMK A01 T01850042  RH  039%=      5-min Rain = 0
KBY1 171613Z 14001KT 19/04 A2997 RMK A01 T01850038  RH  038%=      5-min Rain = 0
KBY1 171614Z 13000KT 19/04 A2997 RMK A01 T01850038  RH  038%=      5-min Rain = 0
KBY1 171615Z 00000KT 19/04 A2996 RMK A01 T01860040  RH  038%=      5-min Rain = 0
KBY1 171616Z 02000KT 19/04 A2996 RMK A01 T01880040  RH  038%=      5-min Rain = 0
KBY1 171617Z 12000KT 19/04 A2996 RMK A01 T01900043  RH  038%=      5-min Rain = 0
KBY1 171618Z 15003KT 19/04 A2996 RMK A01 T01920044  RH  038%=      5-min Rain = 0
KBY1 171619Z 15002KT 19/05 A2996 RMK A01 T01940045  RH  037%=      5-min Rain = 0
KBY1 171620Z 16002KT 19/04 A2996 RMK A01 T01940043  RH  037%=      5-min Rain = 0
KBY1 171621Z 16002KT 20/04 A2996 RMK A01 T01950044  RH  037%=      5-min Rain = 0
KBY1 171622Z 17001KT 20/05 A2996 RMK A01 T01960045  RH  037%=      5-min Rain = 0
KBY1 171623Z 18003KT 20/04 A2996 RMK A01 T01980043  RH  036%=      5-min Rain = 0
KBY1 171624Z 18002KT 20/04 A2996 RMK A01 T01980042  RH  036%=      5-min Rain = 0
KBY1 171625Z 12003KT 20/05 A2996 RMK A01 T01980045  RH  036%=      5-min Rain = 0
KBY1 171626Z 12002KT 20/05 A2996 RMK A01 T01970047  RH  037%=      5-min Rain = 0
KBY1 171627Z 10003KT 20/05 A2996 RMK A01 T01980046  RH  037%=      5-min Rain = 0
KBY1 171628Z 12003KT 20/05 A2996 RMK A01 T01980047  RH  037%=      5-min Rain = 0
KBY1 171629Z 11003KT 20/05 A2996 RMK A01 T01990048  RH  037%=      5-min Rain = 0
KBY1 171630Z 11003KT 20/05 A2996 RMK A01 T02000047  RH  037%=      5-min Rain = 0
KBY1 171631Z 13003KT 20/05 A2996 RMK A01 T02000046  RH  036%=      5-min Rain = 0
KBY1 171632Z 09002KT 20/04 A2996 RMK A01 T01990044  RH  036%=      5-min Rain = 0
KBY1 171633Z 10002KT 20/05 A2996 RMK A01 T01990046  RH  037%=      5-min Rain = 0
KBY1 171634Z 13002KT 20/05 A2996 RMK A01 T01990047  RH  037%=      5-min Rain = 0
KBY1 171635Z 10002KT 20/05 A2996 RMK A01 T02000047  RH  037%=      5-min Rain = 0
KBY1 171636Z 11002KT 20/05 A2995 RMK A01 T02000048  RH  037%=      5-min Rain = 0
KBY1 171637Z 13003KT 20/05 A2995 RMK A01 T02000047  RH  036%=      5-min Rain = 0
KBY1 171638Z 10002KT 20/05 A2995 RMK A01 T02010047  RH  037%=      5-min Rain = 0
KBY1 171639Z 08002KT 20/05 A2995 RMK A01 T02020047  RH  036%=      5-min Rain = 0
KBY1 171640Z 12003KT 20/05 A2995 RMK A01 T02020049  RH  036%=      5-min Rain = 0
KBY1 171641Z 08003KT 20/05 A2995 RMK A01 T02030047  RH  036%=      5-min Rain = 0
KBY1 171642Z 08003KT 20/05 A2995 RMK A01 T02030049  RH  036%=      5-min Rain = 0
KBY1 171643Z 12003KT 20/05 A2995 RMK A01 T02030048  RH  036%=      5-min Rain = 0
KBY1 171644Z 11003KT 20/05 A2995 RMK A01 T02040049  RH  036%=      5-min Rain = 0
KBY1 171645Z 09004KT 21/05 A2995 RMK A01 T02050048  RH  036%=      5-min Rain = 0
KBY1 171646Z 10003KT 21/05 A2995 RMK A01 T02050049  RH  036%=      5-min Rain = 0
KBY1 171647Z 10003KT 21/05 A2995 RMK A01 T02050048  RH  036%=      5-min Rain = 0
KBY1 171648Z 09003KT 20/05 A2995 RMK A01 T02040048  RH  036%=      5-min Rain = 0
KBY1 171649Z 11003KT 20/05 A2995 RMK A01 T02040048  RH  036%=      5-min Rain = 0
KBY1 171650Z 10004KT 20/05 A2995 RMK A01 T02040048  RH  036%=      5-min Rain = 0
KBY1 171651Z 10002KT 21/05 A2995 RMK A01 T02050046  RH  035%=      5-min Rain = 0
KBY1 171652Z 06001KT 21/05 A2995 RMK A01 T02050045  RH  035%=      5-min Rain = 0
KBY1 171653Z 08003KT 21/05 A2995 RMK A01 T02060048  RH  035%=      5-min Rain = 0
KBY1 171654Z 07002KT 21/05 A2995 RMK A01 T02060047  RH  035%=      5-min Rain = 0
KBY1 171655Z 05002KT 21/05 A2995 RMK A01 T02070047  RH  035%=      5-min Rain = 0
KBY1 171656Z 08003KT 21/05 A2994 RMK A01 T02080050  RH  036%=      5-min Rain = 0
KBY1 171657Z 09002KT 21/05 A2994 RMK A01 T02090047  RH  035%=      5-min Rain = 0
KBY1 171658Z 10002KT 21/05 A2994 RMK A01 T02100050  RH  035%=      5-min Rain = 0
KBY1 171659Z 06002KT 21/05 A2994 RMK A01 T02120052  RH  035%=      5-min Rain = 0
KBY1 171700Z 09001KT 21/05 A2994 RMK A01 T02140050  RH  034%=      5-min Rain = 0
KBY1 171701Z 12001KT 22/05 A2994 RMK A01 T02150049  RH  034%=      5-min Rain = 0
KBY1 171702Z 08001KT 22/05 A2994 RMK A01 T02180047  RH  033%=      5-min Rain = 0
KBY1 171703Z 09001KT 22/05 A2994 RMK A01 T02190048  RH  033%=      5-min Rain = 0
KBY1 171704Z 12002KT 22/05 A2994 RMK A01 T02220050  RH  032%=      5-min Rain = 0
KBY1 171705Z 07001KT 23/05 A2994 RMK A01 T02260052  RH  032%=      5-min Rain = 0
KBY1 171706Z 06002KT 23/05 A2994 RMK A01 T02290053  RH  032%=      5-min Rain = 0
KBY1 171707Z 06002KT 23/05 A2994 RMK A01 T02300048  RH  031%=      5-min Rain = 0
KBY1 171708Z 06001KT 23/05 A2994 RMK A01 T02290049  RH  031%=      5-min Rain = 0
KBY1 171709Z 05002KT 23/05 A2994 RMK A01 T02290046  RH  030%=      5-min Rain = 0
KBY1 171710Z 09001KT 23/05 A2994 RMK A01 T02290047  RH  031%=      5-min Rain = 0
KBY1 171711Z 13001KT 23/05 A2994 RMK A01 T02310047  RH  030%=      5-min Rain = 0
KBY1 171712Z 18001KT 23/05 A2993 RMK A01 T02330046  RH  030%=      5-min Rain = 0
KBY1 171713Z 34000KT 24/04 A2993 RMK A01 T02350044  RH  029%=      5-min Rain = 0
KBY1 171714Z 22000KT 24/05 A2993 RMK A01 T02360045  RH  029%=      5-min Rain = 0
KBY1 171715Z 13000KT 24/05 A2993 RMK A01 T02390047  RH  029%=      5-min Rain = 0
KBY1 171716Z 13003KT 24/05 A2993 RMK A01 T02420051  RH  029%=      5-min Rain = 0
KBY1 171717Z 11002KT 24/05 A2993 RMK A01 T02430046  RH  028%=      5-min Rain = 0
KBY1 171718Z 08001KT 24/05 A2993 RMK A01 T02420045  RH  028%=      5-min Rain = 0
KBY1 171719Z 12000KT 24/04 A2993 RMK A01 T02420037  RH  026%=      5-min Rain = 0
KBY1 171720Z 21001KT 24/04 A2993 RMK A01 T02440035  RH  026%=      5-min Rain = 0
KBY1 171721Z 21000KT 25/04 A2993 RMK A01 T02460035  RH  025%=      5-min Rain = 0
KBY1 171722Z 20001KT 25/04 A2993 RMK A01 T02490038  RH  026%=      5-min Rain = 0
KBY1 171723Z 21002KT 25/03 A2993 RMK A01 T02520031  RH  024%=      5-min Rain = 0
KBY1 171724Z 23005KT 25/03 A2993 RMK A01 T02540034  RH  024%=      5-min Rain = 0
KBY1 171725Z 27005KT 26/03 A2993 RMK A01 T02590034  RH  023%=      5-min Rain = 0
KBY1 171726Z 27004KT 26/02 A2993 RMK A01 T02610024  RH  021%=      5-min Rain = 0
KBY1 171727Z 25008KT 26/02 A2992 RMK A01 T02620017  RH  020%=      5-min Rain = 0
KBY1 171728Z 23008G13KT 27/02 A2993 RMK A01 T02650018  RH  020%=      5-min Rain = 0
KBY1 171729Z 25006KT 27/02 A2992 RMK A01 T02670015  RH  019%=      5-min Rain = 0
KBY1 171730Z 24008KT 27/02 A2993 RMK A01 T02660020  RH  020%=      5-min Rain = 0
KBY1 171731Z 24009KT 27/01 A2992 RMK A01 T02660009  RH  019%=      5-min Rain = 0
KBY1 171732Z 24011KT 27/01 A2992 RMK A01 T02700011  RH  019%=      5-min Rain = 0
KBY1 171733Z 22013G19KT 27/01 A2992 RMK A01 T02730005  RH  017%=      5-min Rain = 0
KBY1 171734Z 23015G20KT 28/00 A2992 RMK A01 T02750004  RH  017%=      5-min Rain = 0
KBY1 171735Z 24012KT 28/01 A2992 RMK A01 T02750006  RH  017%=      5-min Rain = 0
KBY1 171736Z 24015KT 28/00 A2992 RMK A01 T02750004  RH  017%=      5-min Rain = 0
KBY1 171737Z 25011KT 27/00 A2992 RMK A01 T02740004  RH  017%=      5-min Rain = 0
KBY1 171738Z 25010KT 27/00 A2992 RMK A01 T02740004  RH  017%=      5-min Rain = 0
KBY1 171739Z 25012KT 27/00 A2992 RMK A01 T02740004  RH  017%=      5-min Rain = 0
KBY1 171740Z 23009KT 28/01 A2992 RMK A01 T02750006  RH  017%=      5-min Rain = 0
KBY1 171741Z 22010KT 28/01 A2992 RMK A01 T02770009  RH  018%=      5-min Rain = 0
KBY1 171742Z 23011KT 28/00 A2992 RMK A01 T02790000  RH  016%=      5-min Rain = 0
KBY1 171743Z 24014G20KT 28/00 A2992 RMK A01 T02800003  RH  017%=      5-min Rain = 0
KBY1 171744Z 24014G19KT 28/M00 A2992 RMK A01 T02801002  RH  016%=      5-min Rain = 0
KBY1 171745Z 24014KT 28/00 A2992 RMK A01 T027900-0  RH  016%=      5-min Rain = 0
KBY1 171746Z 25010KT 28/00 A2992 RMK A01 T02780001  RH  016%=      5-min Rain = 0
KBY1 171747Z 24013G18KT 28/M00 A2991 RMK A01 T02781002  RH  016%=      5-min Rain = 0
KBY1 171748Z 24011KT 28/M00 A2991 RMK A01 T02781001  RH  016%=      5-min Rain = 0
KBY1 171749Z 24013KT 28/00 A2991 RMK A01 T02780000  RH  016%=      5-min Rain = 0
KBY1 171750Z 23014KT 28/M00 A2991 RMK A01 T02791004  RH  016%=      5-min Rain = 0
KBY1 171751Z 22014KT 28/M01 A2991 RMK A01 T02791005  RH  016%=      5-min Rain = 0
KBY1 171752Z 23011KT 28/M00 A2991 RMK A01 T02791001  RH  016%=      5-min Rain = 0
KBY1 171753Z 24011KT 28/00 A2991 RMK A01 T02800001  RH  016%=      5-min Rain = 0
KBY1 171754Z 24012KT 28/00 A2991 RMK A01 T02820000  RH  016%=      5-min Rain = 0
KBY1 171755Z 23014G21KT 28/M00 A2991 RMK A01 T02811004  RH  016%=      5-min Rain = 0
KBY1 171756Z 25013G18KT 28/00 A2991 RMK A01 T02800000  RH  016%=      5-min Rain = 0
KBY1 171757Z 24013KT 28/00 A2991 RMK A01 T028100-0  RH  016%=      5-min Rain = 0
KBY1 171758Z 23015KT 28/00 A2991 RMK A01 T02820002  RH  016%=      5-min Rain = 0
KBY1 171759Z 23012KT 28/M00 A2991 RMK A01 T02821004  RH  015%=      5-min Rain = 0
KBY1 171800Z 22013G20KT 28/M00 A2991 RMK A01 T02811004  RH  016%=      5-min Rain = 0
KBY1 171801Z 23016KT 28/M00 A2991 RMK A01 T02801003  RH  016%=      5-min Rain = 0
KBY1 171802Z 23014KT 28/M00 A2991 RMK A01 T02811002  RH  016%=      5-min Rain = 0
KBY1 171803Z 23016KT 28/M01 A299 RMK A01 T02811005  RH  016%=      5-min Rain = 0
KBY1 171804Z 23013KT 28/M01 A2991 RMK A01 T02811005  RH  015%=      5-min Rain = 0
KBY1 171805Z 23014KT 28/M00 A299 RMK A01 T02801002  RH  016%=      5-min Rain = 0
KBY1 171806Z 23015KT 28/M00 A299 RMK A01 T02811002  RH  016%=      5-min Rain = 0
KBY1 171807Z 23014KT 28/00 A299 RMK A01 T028300-0  RH  016%=      5-min Rain = 0
KBY1 171808Z 22013KT 28/M00 A299 RMK A01 T02841002  RH  016%=      5-min Rain = 0
KBY1 171809Z 23016KT 28/M01 A299 RMK A01 T02841005  RH  015%=      5-min Rain = 0
KBY1 171810Z 23013G20KT 28/M00 A299 RMK A01 T02831001  RH  016%=      5-min Rain = 0
KBY1 171811Z 24016KT 28/M00 A299 RMK A01 T02841003  RH  015%=      5-min Rain = 0
KBY1 171812Z 24012KT 28/M00 A299 RMK A01 T02831002  RH  016%=      5-min Rain = 0
KBY1 171813Z 22013KT 28/00 A299 RMK A01 T02830001  RH  016%=      5-min Rain = 0
KBY1 171814Z 23015G20KT 28/00 A299 RMK A01 T028400-0  RH  016%=      5-min Rain = 0
KBY1 171815Z 22015KT 29/M00 A299 RMK A01 T02851001  RH  016%=      5-min Rain = 0
KBY1 171816Z 22017KT 29/M00 A299 RMK A01 T02851002  RH  015%=      5-min Rain = 0
KBY1 171817Z 23015KT 28/M00 A299 RMK A01 T02831003  RH  016%=      5-min Rain = 0
KBY1 171818Z 23013KT 28/00 A299 RMK A01 T02820001  RH  016%=      5-min Rain = 0
KBY1 171819Z 24012G17KT 28/00 A299 RMK A01 T02820002  RH  016%=      5-min Rain = 0
KBY1 171820Z 24011KT 28/00 A299 RMK A01 T02840004  RH  016%=      5-min Rain = 0
KBY1 171821Z 23013KT 29/00 A299 RMK A01 T028500-0  RH  016%=      5-min Rain = 0
KBY1 171822Z 22014KT 29/00 A299 RMK A01 T028600-0  RH  016%=      5-min Rain = 0
KBY1 171823Z 24013KT 29/00 A2989 RMK A01 T02860000  RH  016%=      5-min Rain = 0
KBY1 171824Z 23014KT 29/00 A2989 RMK A01 T02860001  RH  016%=      5-min Rain = 0
KBY1 171825Z 24016KT 29/M00 A2989 RMK A01 T02861001  RH  016%=      5-min Rain = 0
KBY1 171826Z 25015G20KT 29/M00 A2989 RMK A01 T02851002  RH  016%=      5-min Rain = 0
KBY1 171827Z 24013KT 28/M00 A2989 RMK A01 T02831001  RH  016%=      5-min Rain = 0
KBY1 171828Z 24016KT 28/00 A2989 RMK A01 T02840001  RH  016%=      5-min Rain = 0
KBY1 171829Z 26015KT 29/00 A2989 RMK A01 T02850002  RH  016%=      5-min Rain = 0
KBY1 171830Z 25014KT 29/00 A2989 RMK A01 T02850003  RH  016%=      5-min Rain = 0
KBY1 171831Z 24016KT 29/00 A2989 RMK A01 T028600-0  RH  016%=      5-min Rain = 0
KBY1 171832Z 24013KT 29/M00 A2989 RMK A01 T02851003  RH  015%=      5-min Rain = 0
KBY1 171833Z 23017KT 28/00 A2989 RMK A01 T02840001  RH  016%=      5-min Rain = 0
KBY1 171834Z 22013KT 28/M00 A2989 RMK A01 T02841001  RH  016%=      5-min Rain = 0
KBY1 171835Z 23012G18KT 28/00 A2989 RMK A01 T02840004  RH  016%=      5-min Rain = 0
KBY1 171836Z 23018KT 29/M00 A2988 RMK A01 T02861001  RH  015%=      5-min Rain = 0
KBY1 171837Z 23015KT 29/M01 A2988 RMK A01 T02861005  RH  015%=      5-min Rain = 0
KBY1 171838Z 24012KT 29/M00 A2988 RMK A01 T02861002  RH  015%=      5-min Rain = 0
KBY1 171839Z 23016KT 29/M00 A2988 RMK A01 T02871002  RH  015%=      5-min Rain = 0
KBY1 171840Z 25017KT 29/M00 A2988 RMK A01 T02861002  RH  015%=      5-min Rain = 0
KBY1 171841Z 25014KT 28/M00 A2988 RMK A01 T02841003  RH  015%=      5-min Rain = 0
KBY1 171842Z 25015KT 28/00 A2988 RMK A01 T028400-0  RH  016%=      5-min Rain = 0
KBY1 171843Z 24016KT 28/00 A2988 RMK A01 T028400-0  RH  016%=      5-min Rain = 0
KBY1 171844Z 25015KT 28/00 A2988 RMK A01 T02840001  RH  016%=      5-min Rain = 0
KBY1 171845Z 24014KT 28/00 A2988 RMK A01 T02830004  RH  016%=      5-min Rain = 0
KBY1 171846Z 22012KT 28/00 A2988 RMK A01 T02830003  RH  016%=      5-min Rain = 0
KBY1 171847Z 23008KT 28/01 A2988 RMK A01 T02830006  RH  017%=      5-min Rain = 0
KBY1 171848Z 23011KT 29/01 A2988 RMK A01 T02860009  RH  017%=      5-min Rain = 0
KBY1 171849Z 21013KT 29/01 A2987 RMK A01 T02880008  RH  016%=      5-min Rain = 0
KBY1 171850Z 23012KT 29/00 A2987 RMK A01 T02890003  RH  016%=      5-min Rain = 0
KBY1 171851Z 22013G18KT 29/01 A2987 RMK A01 T02890008  RH  016%=      5-min Rain = 0
KBY1 171852Z 22014KT 29/01 A2987 RMK A01 T02910010  RH  016%=      5-min Rain = 0
KBY1 171853Z 21015KT 29/00 A2987 RMK A01 T02920001  RH  015%=      5-min Rain = 0
KBY1 171854Z 21018KT 29/M01 A2987 RMK A01 T02901005  RH  015%=      5-min Rain = 0
KBY1 171855Z 21016KT 29/M00 A2987 RMK A01 T02891003  RH  015%=      5-min Rain = 0
KBY1 171856Z 21013KT 29/00 A2987 RMK A01 T02900003  RH  016%=      5-min Rain = 0
KBY1 171857Z 22017KT 29/00 A2987 RMK A01 T02930002  RH  015%=      5-min Rain = 0
KBY1 171858Z 22014KT 29/M00 A2987 RMK A01 T02931001  RH  015%=      5-min Rain = 0
KBY1 171859Z 23016G22KT 29/M00 A2987 RMK A01 T02921002  RH  015%=      5-min Rain = 0
KBY1 171900Z 23015KT 29/M01 A2987 RMK A01 T02891006  RH  015%=      5-min Rain = 0
KBY1 171901Z 22015G21KT 29/M01 A2987 RMK A01 T02881007  RH  015%=      5-min Rain = 0
KBY1 171902Z 23016KT 29/M01 A2986 RMK A01 T02891009  RH  014%=      5-min Rain = 0
KBY1 171903Z 24017KT 29/M01 A2987 RMK A01 T02891010  RH  014%=      5-min Rain = 0
KBY1 171904Z 23011G17KT 29/M01 A2987 RMK A01 T02881008  RH  015%=      5-min Rain = 0
KBY1 171905Z 22011KT 29/M00 A2986 RMK A01 T02891004  RH  015%=      5-min Rain = 0
KBY1 171906Z 22011G18KT 29/M01 A2986 RMK A01 T02911006  RH  015%=      5-min Rain = 0
KBY1 171907Z 23011KT 29/M01 A2986 RMK A01 T02911005  RH  015%=      5-min Rain = 0
KBY1 171908Z 23013KT 29/M01 A2986 RMK A01 T02911006  RH  015%=      5-min Rain = 0
KBY1 171909Z 23015KT 29/M01 A2986 RMK A01 T02901010  RH  014%=      5-min Rain = 0
KBY1 171910Z 23016KT 29/M01 A2986 RMK A01 T02881011  RH  014%=      5-min Rain = 0
KBY1 171911Z 24016G21KT 29/M01 A2986 RMK A01 T02871011  RH  014%=      5-min Rain = 0
KBY1 171912Z 24018KT 29/M01 A2986 RMK A01 T02881013  RH  014%=      5-min Rain = 0
KBY1 171913Z 23015KT 29/M01 A2986 RMK A01 T02881014  RH  014%=      5-min Rain = 0
KBY1 171914Z 23011KT 29/M01 A2986 RMK A01 T02891013  RH  014%=      5-min Rain = 0
KBY1 171915Z 22013KT 29/M01 A2986 RMK A01 T02891011  RH  014%=      5-min Rain = 0
KBY1 171916Z 21013KT 29/M01 A2985 RMK A01 T02911012  RH  014%=      5-min Rain = 0
KBY1 171917Z 20012KT 29/M01 A2985 RMK A01 T02911012  RH  014%=      5-min Rain = 0
KBY1 171918Z 21017G23KT 29/M01 A2985 RMK A01 T02931011  RH  014%=      5-min Rain = 0
KBY1 171919Z 22017KT 29/M02 A2985 RMK A01 T02931016  RH  013%=      5-min Rain = 0
KBY1 171920Z 22018KT 29/M02 A2985 RMK A01 T02921017  RH  013%=      5-min Rain = 0
KBY1 171921Z 22017KT 29/M02 A2985 RMK A01 T02901019  RH  013%=      5-min Rain = 0
KBY1 171922Z 22013KT 29/M02 A2985 RMK A01 T02891015  RH  014%=      5-min Rain = 0
KBY1 171923Z 22014KT 29/M01 A2985 RMK A01 T02891013  RH  014%=      5-min Rain = 0
KBY1 171924Z 22015KT 29/M01 A2985 RMK A01 T02911014  RH  014%=      5-min Rain = 0
KBY1 171925Z 22015KT 29/M01 A2985 RMK A01 T02921013  RH  014%=      5-min Rain = 0
KBY1 171926Z 23015G20KT 29/M01 A2985 RMK A01 T02931011  RH  014%=      5-min Rain = 0
KBY1 171927Z 22015KT 29/M02 A2985 RMK A01 T02941017  RH  013%=      5-min Rain = 0
KBY1 171928Z 23017KT 29/M02 A2985 RMK A01 T02941015  RH  013%=      5-min Rain = 0
KBY1 171929Z 23016KT 29/M02 A2985 RMK A01 T02941021  RH  013%=      5-min Rain = 0
KBY1 171930Z 23016KT 29/M02 A2985 RMK A01 T02931017  RH  013%=      5-min Rain = 0
KBY1 171931Z 23014KT 29/M02 A2985 RMK A01 T02921017  RH  013%=      5-min Rain = 0
KBY1 171932Z 22017G22KT 29/M02 A2984 RMK A01 T02931020  RH  013%=      5-min Rain = 0
KBY1 171933Z 23015G20KT 29/M02 A2984 RMK A01 T02921021  RH  013%=      5-min Rain = 0
KBY1 171934Z 23014KT 29/M02 A2984 RMK A01 T02911019  RH  013%=      5-min Rain = 0
KBY1 171935Z 22013KT 29/M02 A2984 RMK A01 T02921017  RH  013%=      5-min Rain = 0
KBY1 171936Z 23012G17KT 29/M02 A2984 RMK A01 T02941015  RH  013%=      5-min Rain = 0
KBY1 171937Z 22016G21KT 30/M02 A2984 RMK A01 T02951016  RH  013%=      5-min Rain = 0
KBY1 171938Z 22015KT 29/M02 A2984 RMK A01 T02941017  RH  013%=      5-min Rain = 0
KBY1 171939Z 22013KT 29/M01 A2984 RMK A01 T02931013  RH  014%=      5-min Rain = 0
KBY1 171940Z 23012KT 29/M02 A2984 RMK A01 T02941019  RH  013%=      5-min Rain = 0
KBY1 171941Z 23015KT 29/M02 A2983 RMK A01 T02921019  RH  013%=      5-min Rain = 0
KBY1 171942Z 21014KT 29/M02 A2983 RMK A01 T02921018  RH  013%=      5-min Rain = 0
KBY1 171943Z 21018KT 29/M02 A2983 RMK A01 T02941019  RH  013%=      5-min Rain = 0
KBY1 171944Z 21013KT 29/M02 A2983 RMK A01 T02941022  RH  013%=      5-min Rain = 0
KBY1 171945Z 21015KT 30/M02 A2983 RMK A01 T02951015  RH  013%=      5-min Rain = 0
KBY1 171946Z 20014KT 30/M02 A2983 RMK A01 T02951017  RH  013%=      5-min Rain = 0
KBY1 171947Z 19011KT 30/M02 A2983 RMK A01 T02961018  RH  013%=      5-min Rain = 0
KBY1 171948Z 19014G20KT 30/M01 A2983 RMK A01 T02961013  RH  013%=      5-min Rain = 0
KBY1 171949Z 21016KT 30/M01 A2983 RMK A01 T02991014  RH  013%=      5-min Rain = 0
KBY1 171950Z 22017KT 30/M01 A2983 RMK A01 T03011012  RH  013%=      5-min Rain = 0
KBY1 171951Z 22015KT 30/M02 A2983 RMK A01 T02991019  RH  013%=      5-min Rain = 0
KBY1 171952Z 22012G17KT 30/M02 A2983 RMK A01 T02961018  RH  013%=      5-min Rain = 0
KBY1 171953Z 23012KT 30/M02 A2983 RMK A01 T02961015  RH  013%=      5-min Rain = 0
KBY1 171954Z 23010KT 30/M02 A2983 RMK A01 T02971016  RH  013%=      5-min Rain = 0
KBY1 171955Z 23013KT 30/M02 A2983 RMK A01 T02981016  RH  013%=      5-min Rain = 0
KBY1 171956Z 22014KT 30/M02 A2983 RMK A01 T02981015  RH  013%=      5-min Rain = 0
KBY1 171957Z 22014G19KT 30/M02 A2983 RMK A01 T03001020  RH  012%=      5-min Rain = 0
KBY1 171958Z 23014KT 30/M02 A2983 RMK A01 T02981022  RH  012%=      5-min Rain = 0
KBY1 171959Z 21013KT 30/M02 A2983 RMK A01 T02971020  RH  013%=      5-min Rain = 0
KBY1 172000Z 21016KT 30/M02 A2982 RMK A01 T02971021  RH  013%=      5-min Rain = 0
KBY1 172001Z 21017G23KT 30/M02 A2982 RMK A01 T02981022  RH  012%=      5-min Rain = 0
KBY1 172002Z 21017KT 30/M02 A2982 RMK A01 T02961023  RH  012%=      5-min Rain = 0
KBY1 172003Z 22017KT 29/M02 A2982 RMK A01 T02941022  RH  013%=      5-min Rain = 0
KBY1 172004Z 21016KT 29/M02 A2982 RMK A01 T02931019  RH  013%=      5-min Rain = 0
KBY1 172005Z 21015G21KT 29/M02 A2982 RMK A01 T02941019  RH  013%=      5-min Rain = 0
KBY1 172006Z 21017G22KT 30/M02 A2982 RMK A01 T02961023  RH  012%=      5-min Rain = 0
KBY1 172007Z 21019KT 30/M03 A2982 RMK A01 T02951029  RH  012%=      5-min Rain = 0
KBY1 172008Z 21015KT 29/M03 A2982 RMK A01 T02931032  RH  012%=      5-min Rain = 0
KBY1 172009Z 21013KT 29/M03 A2982 RMK A01 T02931031  RH  012%=      5-min Rain = 0
KBY1 172010Z 20014KT 30/M03 A2982 RMK A01 T02951030  RH  012%=      5-min Rain = 0
KBY1 172011Z 21013KT 30/M03 A2982 RMK A01 T02951029  RH  012%=      5-min Rain = 0
KBY1 172012Z 22011KT 30/M02 A2982 RMK A01 T02961022  RH  013%=      5-min Rain = 0
KBY1 172013Z 22015KT 30/M02 A2982 RMK A01 T02981023  RH  012%=      5-min Rain = 0
KBY1 172014Z 22016KT 30/M03 A2982 RMK A01 T02961028  RH  012%=      5-min Rain = 0
KBY1 172015Z 23015KT 29/M03 A2982 RMK A01 T02931031  RH  012%=      5-min Rain = 0
KBY1 172016Z 22013KT 29/M03 A2982 RMK A01 T02911027  RH  012%=      5-min Rain = 0
KBY1 172017Z 22014KT 29/M02 A2982 RMK A01 T02921023  RH  013%=      5-min Rain = 0
KBY1 172018Z 20014KT 30/M03 A2982 RMK A01 T02951028  RH  012%=      5-min Rain = 0
KBY1 172019Z 20015G20KT 30/M03 A2981 RMK A01 T02951032  RH  012%=      5-min Rain = 0
KBY1 172020Z 21012KT 30/M03 A2981 RMK A01 T02951030  RH  012%=      5-min Rain = 0
KBY1 172021Z 21014KT 30/M03 A2981 RMK A01 T02971025  RH  012%=      5-min Rain = 0
KBY1 172022Z 21015KT 30/M03 A2981 RMK A01 T02991029  RH  012%=      5-min Rain = 0
KBY1 172023Z 23013KT 30/M03 A2981 RMK A01 T02991026  RH  012%=      5-min Rain = 0
KBY1 172024Z 22014KT 30/M03 A2981 RMK A01 T03001027  RH  012%=      5-min Rain = 0
KBY1 172025Z 22013KT 30/M03 A2981 RMK A01 T02991028  RH  012%=      5-min Rain = 0
KBY1 172026Z 22016KT 30/M02 A2981 RMK A01 T02981024  RH  012%=      5-min Rain = 0
KBY1 172027Z 21012KT 30/M02 A2981 RMK A01 T02981024  RH  012%=      5-min Rain = 0
KBY1 172028Z 20014KT 30/M02 A2981 RMK A01 T02991024  RH  012%=      5-min Rain = 0
KBY1 172029Z 21013KT 30/M02 A2981 RMK A01 T02991023  RH  012%=      5-min Rain = 0
KBY1 172030Z 20017G23KT 30/M03 A2981 RMK A01 T02991025  RH  012%=      5-min Rain = 0
KBY1 172031Z 21017G22KT 30/M03 A2981 RMK A01 T02981031  RH  012%=      5-min Rain = 0
KBY1 172032Z 20016G21KT 30/M03 A2981 RMK A01 T02951033  RH  012%=      5-min Rain = 0
KBY1 172033Z 21016G21KT 30/M03 A2981 RMK A01 T02951030  RH  012%=      5-min Rain = 0
KBY1 172034Z 21016KT 30/M03 A2981 RMK A01 T02951029  RH  012%=      5-min Rain = 0
KBY1 172035Z 22014KT 30/M03 A2981 RMK A01 T02961027  RH  012%=      5-min Rain = 0
KBY1 172036Z 22015KT 30/M03 A2981 RMK A01 T02961029  RH  012%=      5-min Rain = 0
KBY1 172037Z 21016KT 30/M03 A2981 RMK A01 T02961027  RH  012%=      5-min Rain = 0
KBY1 172038Z 21015KT 30/M03 A2981 RMK A01 T02971027  RH  012%=      5-min Rain = 0
KBY1 172039Z 24017G23KT 30/M03 A2981 RMK A01 T02971028  RH  012%=      5-min Rain = 0
KBY1 172040Z 23016G24KT 30/M03 A298 RMK A01 T02971027  RH  012%=      5-min Rain = 0
KBY1 172041Z 23014KT 30/M02 A2981 RMK A01 T02961024  RH  012%=      5-min Rain = 0
KBY1 172042Z 22011G16KT 30/M02 A298 RMK A01 T02961024  RH  012%=      5-min Rain = 0
KBY1 172043Z 22014KT 30/M02 A298 RMK A01 T02961023  RH  012%=      5-min Rain = 0
KBY1 172044Z 22013G18KT 30/M02 A298 RMK A01 T02971022  RH  012%=      5-min Rain = 0
KBY1 172045Z 21014KT 30/M02 A298 RMK A01 T02981024  RH  012%=      5-min Rain = 0
KBY1 172046Z 20010KT 30/M02 A298 RMK A01 T02981020  RH  013%=      5-min Rain = 0
KBY1 172047Z 19016G21KT 30/M02 A298 RMK A01 T03001019  RH  013%=      5-min Rain = 0
KBY1 172048Z 19016KT 30/M02 A298 RMK A01 T03011021  RH  012%=      5-min Rain = 0
KBY1 172049Z 19016KT 30/M02 A298 RMK A01 T03001021  RH  012%=      5-min Rain = 0
KBY1 172050Z 21016KT 30/M02 A298 RMK A01 T02991022  RH  012%=      5-min Rain = 0
KBY1 172051Z 21014KT 30/M02 A298 RMK A01 T02981022  RH  012%=      5-min Rain = 0
KBY1 172052Z 19018KT 30/M02 A298 RMK A01 T02971020  RH  013%=      5-min Rain = 0
KBY1 172053Z 19018KT 30/M02 A298 RMK A01 T02961019  RH  013%=      5-min Rain = 0
KBY1 172054Z 20018KT 30/M02 A298 RMK A01 T02961021  RH  013%=      5-min Rain = 0
KBY1 172055Z 20020KT 30/M02 A298 RMK A01 T02951024  RH  012%=      5-min Rain = 0
KBY1 172056Z 20017KT 29/M02 A298 RMK A01 T02931023  RH  013%=      5-min Rain = 0
KBY1 172057Z 19013KT 29/M02 A298 RMK A01 T02931022  RH  013%=      5-min Rain = 0
KBY1 172058Z 20014KT 29/M02 A298 RMK A01 T02931020  RH  013%=      5-min Rain = 0
KBY1 172059Z 21014KT 29/M02 A298 RMK A01 T02931018  RH  013%=      5-min Rain = 0
KBY1 172100Z 21017KT 29/M02 A298 RMK A01 T02931017  RH  013%=      5-min Rain = 0
KBY1 172101Z 21017KT 29/M02 A298 RMK A01 T02911022  RH  013%=      5-min Rain = 0
KBY1 172102Z 21017KT 29/M02 A298 RMK A01 T02881024  RH  013%=      5-min Rain = 0
KBY1 172103Z 21014KT 29/M02 A298 RMK A01 T02871024  RH  013%=      5-min Rain = 0
KBY1 172104Z 20015G20KT 29/M02 A298 RMK A01 T02871020  RH  013%=      5-min Rain = 0
KBY1 172105Z 20014G19KT 29/M02 A298 RMK A01 T02871016  RH  014%=      5-min Rain = 0
KBY1 172106Z 21014KT 29/M01 A298 RMK A01 T02881014  RH  014%=      5-min Rain = 0
KBY1 172107Z 20015G21KT 29/M01 A298 RMK A01 T02871013  RH  014%=      5-min Rain = 0
KBY1 172108Z 21016KT 29/M01 A298 RMK A01 T02851012  RH  014%=      5-min Rain = 0
KBY1 172109Z 20017KT 28/M01 A298 RMK A01 T02831014  RH  014%=      5-min Rain = 0
KBY1 172110Z 21015KT 28/M01 A298 RMK A01 T02811014  RH  015%=      5-min Rain = 0
KBY1 172111Z 20015KT 28/M01 A298 RMK A01 T02801014  RH  015%=      5-min Rain = 0
KBY1 172112Z 21013KT 28/M01 A298 RMK A01 T02801011  RH  015%=      5-min Rain = 0
KBY1 172113Z 20016KT 28/M01 A298 RMK A01 T02821011  RH  015%=      5-min Rain = 0
KBY1 172114Z 20014KT 28/M01 A298 RMK A01 T02821014  RH  014%=      5-min Rain = 0
KBY1 172115Z 20016KT 28/M01 A298 RMK A01 T02841013  RH  014%=      5-min Rain = 0
KBY1 172116Z 20012G18KT 28/M01 A298 RMK A01 T02841012  RH  014%=      5-min Rain = 0
KBY1 172117Z 19016G21KT 29/M01 A298 RMK A01 T02861009  RH  015%=      5-min Rain = 0
KBY1 172118Z 20017KT 29/M01 A298 RMK A01 T02871012  RH  014%=      5-min Rain = 0
KBY1 172119Z 21015G20KT 29/M01 A298 RMK A01 T02881010  RH  014%=      5-min Rain = 0
KBY1 172120Z 20015KT 29/M01 A298 RMK A01 T02881009  RH  014%=      5-min Rain = 0
KBY1 172121Z 21012KT 29/M01 A298 RMK A01 T02891007  RH  015%=      5-min Rain = 0
KBY1 172122Z 22015G22KT 29/M01 A298 RMK A01 T02901009  RH  014%=      5-min Rain = 0
KBY1 172123Z 22016KT 29/M01 A298 RMK A01 T02901013  RH  014%=      5-min Rain = 0
KBY1 172124Z 22014KT 29/M01 A298 RMK A01 T02871012  RH  014%=      5-min Rain = 0
KBY1 172125Z 21017KT 29/M01 A298 RMK A01 T02871011  RH  014%=      5-min Rain = 0
KBY1 172126Z 20014KT 29/M01 A298 RMK A01 T02871010  RH  014%=      5-min Rain = 0
KBY1 172127Z 21015KT 29/M01 A298 RMK A01 T02891009  RH  014%=      5-min Rain = 0
KBY1 172128Z 21014KT 29/M01 A298 RMK A01 T02891011  RH  014%=      5-min Rain = 0
KBY1 172129Z 21013G18KT 29/M01 A298 RMK A01 T02901009  RH  014%=      5-min Rain = 0
KBY1 172130Z 21014G19KT 29/M01 A298 RMK A01 T02921010  RH  014%=      5-min Rain = 0
KBY1 172131Z 20015KT 29/M01 A298 RMK A01 T02941008  RH  014%=      5-min Rain = 0
KBY1 172132Z 20017KT 30/M01 A298 RMK A01 T02961008  RH  014%=      5-min Rain = 0
KBY1 172133Z 20016G21KT 30/M01 A298 RMK A01 T02961010  RH  014%=      5-min Rain = 0
KBY1 172134Z 20018G24KT 30/M01 A298 RMK A01 T02961011  RH  014%=      5-min Rain = 0
KBY1 172135Z 21016KT 30/M01 A298 RMK A01 T02961009  RH  014%=      5-min Rain = 0
KBY1 172136Z 21013KT 30/M01 A298 RMK A01 T02951011  RH  014%=      5-min Rain = 0
KBY1 172137Z 21012KT 30/M01 A298 RMK A01 T02951009  RH  014%=      5-min Rain = 0
KBY1 172138Z 18016G21KT 30/M01 A298 RMK A01 T02951010  RH  014%=      5-min Rain = 0
KBY1 172139Z 20018KT 30/M01 A2979 RMK A01 T02951010  RH  014%=      5-min Rain = 0
KBY1 172140Z 19019KT 29/M01 A2979 RMK A01 T02941009  RH  014%=      5-min Rain = 0
KBY1 172141Z 20017KT 29/M01 A298 RMK A01 T02921009  RH  014%=      5-min Rain = 0
KBY1 172142Z 21017KT 29/M01 A298 RMK A01 T02901011  RH  014%=      5-min Rain = 0
KBY1 172143Z 21017G23KT 29/M01 A2979 RMK A01 T02881011  RH  014%=      5-min Rain = 0
KBY1 172144Z 19017KT 29/M01 A298 RMK A01 T02861011  RH  014%=      5-min Rain = 0
KBY1 172145Z 20016G21KT 29/M01 A2979 RMK A01 T02851012  RH  014%=      5-min Rain = 0
KBY1 172146Z 21018KT 28/M01 A2979 RMK A01 T02841014  RH  014%=      5-min Rain = 0
KBY1 172147Z 22016KT 28/M02 A2979 RMK A01 T02821015  RH  014%=      5-min Rain = 0
KBY1 172148Z 20019KT 28/M01 A2979 RMK A01 T02811014  RH  014%=      5-min Rain = 0
KBY1 172149Z 21014KT 28/M01 A2979 RMK A01 T02801013  RH  015%=      5-min Rain = 0
KBY1 172150Z 20016KT 28/M02 A2979 RMK A01 T02791015  RH  015%=      5-min Rain = 0
KBY1 172151Z 19014KT 28/M01 A2979 RMK A01 T02781013  RH  015%=      5-min Rain = 0
KBY1 172152Z 19016KT 28/M01 A2979 RMK A01 T02781011  RH  015%=      5-min Rain = 0
KBY1 172153Z 19020KT 28/M01 A2979 RMK A01 T02781014  RH  015%=      5-min Rain = 0
KBY1 172154Z 19019KT 28/M02 A2979 RMK A01 T02771016  RH  015%=      5-min Rain = 0
KBY1 172155Z 19016KT 28/M02 A2979 RMK A01 T02771016  RH  015%=      5-min Rain = 0
KBY1 172156Z 20015KT 28/M01 A2979 RMK A01 T02771013  RH  015%=      5-min Rain = 0
KBY1 172157Z 21012KT 28/M01 A2979 RMK A01 T02771012  RH  015%=      5-min Rain = 0
KBY1 172158Z 20015KT 28/M01 A2979 RMK A01 T02781013  RH  015%=      5-min Rain = 0
KBY1 172159Z 19017G23KT 28/M01 A2979 RMK A01 T02781014  RH  015%=      5-min Rain = 0
KBY1 172200Z 20015G20KT 28/M01 A2979 RMK A01 T02781013  RH  015%=      5-min Rain = 0
KBY1 172201Z 20017KT 28/M02 A2979 RMK A01 T02781016  RH  015%=      5-min Rain = 0
KBY1 172202Z 20013G19KT 28/M02 A2979 RMK A01 T02771015  RH  015%=      5-min Rain = 0
KBY1 172203Z 19017KT 28/M01 A2979 RMK A01 T02801014  RH  015%=      5-min Rain = 0
KBY1 172204Z 19015KT 28/M01 A2979 RMK A01 T02801014  RH  015%=      5-min Rain = 0
KBY1 172205Z 20015G21KT 28/M01 A2979 RMK A01 T02811012  RH  015%=      5-min Rain = 0
KBY1 172206Z 20015G20KT 28/M02 A2979 RMK A01 T02801015  RH  015%=      5-min Rain = 0
KBY1 172207Z 19017G22KT 28/M02 A2979 RMK A01 T02781015  RH  015%=      5-min Rain = 0
KBY1 172208Z 20013KT 28/M02 A2979 RMK A01 T02771016  RH  015%=      5-min Rain = 0
KBY1 172209Z 21014G19KT 28/M02 A2979 RMK A01 T02761015  RH  015%=      5-min Rain = 0
KBY1 172210Z 20016G21KT 28/M02 A2979 RMK A01 T02751016  RH  015%=      5-min Rain = 0
KBY1 172211Z 21015KT 28/M02 A2979 RMK A01 T02751019  RH  014%=      5-min Rain = 0
KBY1 172212Z 20016KT 28/M02 A2979 RMK A01 T02751017  RH  015%=      5-min Rain = 0
KBY1 172213Z 20017KT 28/M02 A2979 RMK A01 T02761017  RH  015%=      5-min Rain = 0
KBY1 172214Z 20014KT 28/M02 A2979 RMK A01 T02761017  RH  015%=      5-min Rain = 0
KBY1 172215Z 20012KT 28/M02 A2979 RMK A01 T02761016  RH  015%=      5-min Rain = 0
KBY1 172216Z 20010KT 28/M01 A2979 RMK A01 T02771012  RH  015%=      5-min Rain = 0
KBY1 172217Z 20011KT 28/M01 A2979 RMK A01 T02771013  RH  015%=      5-min Rain = 0
KBY1 172218Z 21011KT 28/M01 A2979 RMK A01 T02771011  RH  015%=      5-min Rain = 0
KBY1 172219Z 20012G17KT 28/M01 A2979 RMK A01 T02761012  RH  015%=      5-min Rain = 0
KBY1 172220Z 20013KT 28/M02 A2979 RMK A01 T02761015  RH  015%=      5-min Rain = 0
KBY1 172221Z 20014KT 28/M02 A2979 RMK A01 T02751015  RH  015%=      5-min Rain = 0
KBY1 172222Z 20014KT 28/M01 A2979 RMK A01 T02751014  RH  015%=      5-min Rain = 0
KBY1 172223Z 20013KT 27/M02 A2979 RMK A01 T02741015  RH  015%=      5-min Rain = 0
KBY1 172224Z 20015KT 27/M02 A2979 RMK A01 T02741016  RH  015%=      5-min Rain = 0
KBY1 172225Z 20013KT 27/M02 A2979 RMK A01 T02731017  RH  015%=      5-min Rain = 0
KBY1 172226Z 20012KT 27/M02 A2979 RMK A01 T02731020  RH  015%=      5-min Rain = 0
KBY1 172227Z 20012G17KT 27/M02 A2979 RMK A01 T02731019  RH  015%=      5-min Rain = 0
KBY1 172228Z 20015G20KT 27/M02 A2979 RMK A01 T02731018  RH  015%=      5-min Rain = 0
KBY1 172229Z 20013KT 27/M02 A2979 RMK A01 T02731019  RH  015%=      5-min Rain = 0
KBY1 172230Z 20014KT 27/M02 A2979 RMK A01 T02731018  RH  015%=      5-min Rain = 0
KBY1 172231Z 20012KT 27/M02 A2979 RMK A01 T02731019  RH  015%=      5-min Rain = 0
KBY1 172232Z 20013KT 27/M02 A2979 RMK A01 T02731019  RH  015%=      5-min Rain = 0
KBY1 172233Z 21012KT 27/M02 A2979 RMK A01 T02731017  RH  015%=      5-min Rain = 0
KBY1 172234Z 20011KT 27/M02 A2979 RMK A01 T02731015  RH  015%=      5-min Rain = 0
KBY1 172235Z 19011KT 27/M01 A2979 RMK A01 T02721014  RH  015%=      5-min Rain = 0
KBY1 172236Z 20011KT 27/M02 A2979 RMK A01 T02711015  RH  015%=      5-min Rain = 0
KBY1 172237Z 19013KT 27/M02 A2978 RMK A01 T02701015  RH  015%=      5-min Rain = 0
KBY1 172238Z 19014G19KT 27/M02 A2978 RMK A01 T02701017  RH  015%=      5-min Rain = 0
KBY1 172239Z 20013G19KT 27/M02 A2978 RMK A01 T02701017  RH  015%=      5-min Rain = 0
KBY1 172240Z 19014KT 27/M02 A2978 RMK A01 T02691017  RH  015%=      5-min Rain = 0
KBY1 172241Z 19014KT 27/M02 A2978 RMK A01 T02691018  RH  015%=      5-min Rain = 0
KBY1 172242Z 19011G16KT 27/M02 A2978 RMK A01 T02691015  RH  015%=      5-min Rain = 0
KBY1 172243Z 19014KT 27/M02 A2978 RMK A01 T02681017  RH  015%=      5-min Rain = 0
KBY1 172244Z 19010KT 27/M02 A2978 RMK A01 T02681016  RH  015%=      5-min Rain = 0
KBY1 172245Z 19011KT 27/M02 A2978 RMK A01 T02681015  RH  016%=      5-min Rain = 0
KBY1 172246Z 19012KT 27/M02 A2978 RMK A01 T02681015  RH  016%=      5-min Rain = 0
KBY1 172247Z 19013KT 27/M02 A2978 RMK A01 T02681016  RH  015%=      5-min Rain = 0
KBY1 172248Z 18010KT 27/M01 A2978 RMK A01 T02681014  RH  016%=      5-min Rain = 0
KBY1 172249Z 18009G15KT 27/M01 A2978 RMK A01 T02671012  RH  016%=      5-min Rain = 0
KBY1 172250Z 19010KT 27/M01 A2978 RMK A01 T02671012  RH  016%=      5-min Rain = 0
KBY1 172251Z 18009KT 27/M01 A2978 RMK A01 T02661011  RH  016%=      5-min Rain = 0
KBY1 172252Z 19013KT 27/M01 A2978 RMK A01 T02661011  RH  016%=      5-min Rain = 0
KBY1 172253Z 19012KT 27/M01 A2978 RMK A01 T02661014  RH  016%=      5-min Rain = 0
KBY1 172254Z 19010KT 27/M01 A2978 RMK A01 T02661011  RH  016%=      5-min Rain = 0
KBY1 172255Z 19008KT 27/M01 A2978 RMK A01 T02651010  RH  016%=      5-min Rain = 0
KBY1 172256Z 19012KT 27/M01 A2978 RMK A01 T02651010  RH  016%=      5-min Rain = 0
KBY1 172257Z 19009KT 27/M01 A2978 RMK A01 T02651011  RH  016%=      5-min Rain = 0
KBY1 172258Z 20008KT 26/M01 A2978 RMK A01 T02641009  RH  017%=      5-min Rain = 0
KBY1 172259Z 20009KT 26/M01 A2978 RMK A01 T02641008  RH  017%=      5-min Rain = 0
KBY1 172300Z 20012KT 26/M01 A2978 RMK A01 T02641013  RH  016%=      5-min Rain = 0
KBY1 172301Z 20014KT 26/M02 A2978 RMK A01 T02641022  RH  015%=      5-min Rain = 0
KBY1 172302Z 21012KT 27/M02 A2978 RMK A01 T02661024  RH  015%=      5-min Rain = 0
KBY1 172303Z 21013KT 27/M03 A2978 RMK A01 T02661028  RH  014%=      5-min Rain = 0
KBY1 172304Z 20010KT 27/M03 A2978 RMK A01 T02651029  RH  014%=      5-min Rain = 0
KBY1 172305Z 20011G16KT 27/M03 A2978 RMK A01 T02651030  RH  014%=      5-min Rain = 0
KBY1 172306Z 20014KT 27/M03 A2977 RMK A01 T02651033  RH  014%=      5-min Rain = 0
KBY1 172307Z 20012KT 27/M03 A2977 RMK A01 T02651034  RH  014%=      5-min Rain = 0
KBY1 172308Z 20011KT 27/M03 A2977 RMK A01 T02651032  RH  014%=      5-min Rain = 0
KBY1 172309Z 20011KT 26/M03 A2977 RMK A01 T02641032  RH  014%=      5-min Rain = 0
KBY1 172310Z 21009KT 26/M03 A2978 RMK A01 T02641031  RH  014%=      5-min Rain = 0
KBY1 172311Z 20008KT 26/M03 A2978 RMK A01 T02631030  RH  014%=      5-min Rain = 0
KBY1 172312Z 20011KT 26/M03 A2978 RMK A01 T02631028  RH  015%=      5-min Rain = 0
KBY1 172313Z 20012KT 26/M03 A2977 RMK A01 T02621030  RH  014%=      5-min Rain = 0
KBY1 172314Z 20010KT 26/M03 A2977 RMK A01 T02621031  RH  014%=      5-min Rain = 0
KBY1 172315Z 20011KT 26/M03 A2977 RMK A01 T02621032  RH  014%=      5-min Rain = 0
KBY1 172316Z 19010KT 26/M03 A2977 RMK A01 T02621031  RH  014%=      5-min Rain = 0
KBY1 172317Z 20009KT 26/M03 A2977 RMK A01 T02631028  RH  015%=      5-min Rain = 0
KBY1 172318Z 19008KT 26/M03 A2977 RMK A01 T02621026  RH  015%=      5-min Rain = 0
KBY1 172319Z 19009KT 26/M03 A2977 RMK A01 T02611025  RH  015%=      5-min Rain = 0
KBY1 172320Z 20007KT 26/M02 A2977 RMK A01 T02591024  RH  015%=      5-min Rain = 0
KBY1 172321Z 19011KT 26/M03 A2977 RMK A01 T02591026  RH  015%=      5-min Rain = 0
KBY1 172322Z 20009KT 26/M03 A2977 RMK A01 T02591026  RH  015%=      5-min Rain = 0
KBY1 172323Z 19010KT 26/M03 A2977 RMK A01 T02591025  RH  015%=      5-min Rain = 0
KBY1 172324Z 19012KT 26/M03 A2977 RMK A01 T02591027  RH  015%=      5-min Rain = 0
KBY1 172325Z 19010KT 26/M03 A2977 RMK A01 T02591027  RH  015%=      5-min Rain = 0
KBY1 172326Z 20011KT 26/M03 A2977 RMK A01 T02591027  RH  015%=      5-min Rain = 0
KBY1 172327Z 20010KT 26/M03 A2977 RMK A01 T02591025  RH  015%=      5-min Rain = 0
KBY1 172328Z 19011KT 26/M03 A2977 RMK A01 T02581026  RH  015%=      5-min Rain = 0
KBY1 172329Z 19010KT 26/M03 A2977 RMK A01 T02581026  RH  015%=      5-min Rain = 0
KBY1 172330Z 19009KT 26/M03 A2977 RMK A01 T02571026  RH  015%=      5-min Rain = 0
KBY1 172331Z 19011KT 26/M03 A2977 RMK A01 T02571026  RH  015%=      5-min Rain = 0
KBY1 172332Z 19011KT 26/M03 A2977 RMK A01 T02561028  RH  015%=      5-min Rain = 0
KBY1 172333Z 19012KT 26/M03 A2977 RMK A01 T02561027  RH  015%=      5-min Rain = 0
KBY1 172334Z 19011KT 26/M03 A2977 RMK A01 T02561029  RH  015%=      5-min Rain = 0
KBY1 172335Z 19010KT 26/M03 A2977 RMK A01 T02561028  RH  015%=      5-min Rain = 0
KBY1 172336Z 19008KT 26/M03 A2977 RMK A01 T02561027  RH  015%=      5-min Rain = 0
KBY1 172337Z 19010KT 25/M03 A2977 RMK A01 T02541026  RH  016%=      5-min Rain = 0
KBY1 172338Z 19009KT 25/M03 A2977 RMK A01 T02531027  RH  016%=      5-min Rain = 0
KBY1 172339Z 19008KT 25/M03 A2977 RMK A01 T02531026  RH  016%=      5-min Rain = 0
KBY1 172340Z 19007KT 25/M03 A2977 RMK A01 T02521026  RH  016%=      5-min Rain = 0
KBY1 172341Z 19009KT 25/M03 A2977 RMK A01 T02501025  RH  016%=      5-min Rain = 0
KBY1 172342Z 19008KT 25/M02 A2977 RMK A01 T02501024  RH  016%=      5-min Rain = 0
KBY1 172343Z 19008KT 25/M02 A2977 RMK A01 T02491023  RH  016%=      5-min Rain = 0
KBY1 172344Z 19007KT 25/M02 A2977 RMK A01 T02491023  RH  016%=      5-min Rain = 0
KBY1 172345Z 19008KT 25/M02 A2977 RMK A01 T02481023  RH  017%=      5-min Rain = 0
KBY1 172346Z 19011KT 25/M02 A2977 RMK A01 T02471024  RH  016%=      5-min Rain = 0
KBY1 172347Z 19009KT 25/M03 A2977 RMK A01 T02481025  RH  016%=      5-min Rain = 0
KBY1 172348Z 19007KT 25/M02 A2977 RMK A01 T02491023  RH  016%=      5-min Rain = 0
KBY1 172349Z 19007KT 25/M02 A2977 RMK A01 T02481023  RH  017%=      5-min Rain = 0
KBY1 172350Z 19007KT 25/M02 A2977 RMK A01 T02471022  RH  017%=      5-min Rain = 0
KBY1 172351Z 19007KT 25/M02 A2977 RMK A01 T02461021  RH  017%=      5-min Rain = 0
KBY1 172352Z 19007KT 25/M02 A2977 RMK A01 T02451021  RH  017%=      5-min Rain = 0
KBY1 172353Z 19007KT 24/M02 A2977 RMK A01 T02441021  RH  017%=      5-min Rain = 0
KBY1 172354Z 18005KT 24/M02 A2977 RMK A01 T02441020  RH  017%=      5-min Rain = 0
KBY1 172355Z 18006KT 24/M02 A2977 RMK A01 T02421018  RH  018%=      5-min Rain = 0
KBY1 172356Z 18006KT 24/M02 A2977 RMK A01 T02411018  RH  018%=      5-min Rain = 0
KBY1 172357Z 18006KT 24/M02 A2977 RMK A01 T02391017  RH  018%=      5-min Rain = 0
KBY1 172358Z 18006KT 24/M02 A2977 RMK A01 T02391016  RH  018%=      5-min Rain = 0
KBY1 172359Z 18005KT 24/M02 A2977 RMK A01 T02381015  RH  019%=      5-min Rain = 0
KBY1 180000Z 18006KT 24/M02 A2977 RMK A01 T02371015  RH  019%=      5-min Rain = 0
KBY1 180001Z 18006KT 24/M02 A2977 RMK A01 T02361015  RH  019%=      5-min Rain = 0
KBY1 180002Z 19006KT 24/M01 A2977 RMK A01 T02351014  RH  019%=      5-min Rain = 0
KBY1 180003Z 19006KT 23/M01 A2977 RMK A01 T02341014  RH  019%=      5-min Rain = 0
KBY1 180004Z 19006KT 23/M01 A2977 RMK A01 T02331014  RH  019%=      5-min Rain = 0
KBY1 180005Z 19006KT 23/M01 A2977 RMK A01 T02331013  RH  019%=      5-min Rain = 0
KBY1 180006Z 18006KT 23/M01 A2977 RMK A01 T02331013  RH  019%=      5-min Rain = 0
KBY1 180007Z 18006KT 23/M01 A2977 RMK A01 T02321013  RH  020%=      5-min Rain = 0
KBY1 180008Z 18006KT 23/M01 A2977 RMK A01 T02301012  RH  020%=      5-min Rain = 0
KBY1 180009Z 18006KT 23/M01 A2977 RMK A01 T02291012  RH  020%=      5-min Rain = 0
KBY1 180010Z 18005KT 23/M01 A2977 RMK A01 T02281011  RH  020%=      5-min Rain = 0
KBY1 180011Z 18006KT 23/M01 A2977 RMK A01 T02271011  RH  020%=      5-min Rain = 0
KBY1 180012Z 18006KT 23/M01 A2977 RMK A01 T02261010  RH  021%=      5-min Rain = 0
KBY1 180013Z 18005KT 23/M01 A2977 RMK A01 T02251009  RH  021%=      5-min Rain = 0
KBY1 180014Z 18006KT 22/M01 A2977 RMK A01 T02241009  RH  021%=      5-min Rain = 0
KBY1 180015Z 18005KT 22/M01 A2977 RMK A01 T02231009  RH  021%=      5-min Rain = 0
KBY1 180016Z 18006KT 22/M01 A2977 RMK A01 T02231009  RH  021%=      5-min Rain = 0
KBY1 180017Z 18006KT 22/M01 A2977 RMK A01 T02221009  RH  022%=      5-min Rain = 0
KBY1 180018Z 18006KT 22/M01 A2977 RMK A01 T02201008  RH  022%=      5-min Rain = 0
KBY1 180019Z 18006KT 22/M01 A2977 RMK A01 T02191008  RH  022%=      5-min Rain = 0
KBY1 180020Z 18006KT 22/M01 A2977 RMK A01 T02181008  RH  022%=      5-min Rain = 0
KBY1 180021Z 18006KT 22/M01 A2977 RMK A01 T02181008  RH  022%=      5-min Rain = 0
KBY1 180022Z 18005KT 22/M01 A2977 RMK A01 T02181008  RH  022%=      5-min Rain = 0
KBY1 180023Z 18006KT 22/M01 A2977 RMK A01 T02181008  RH  022%=      5-min Rain = 0
KBY1 180024Z 18006KT 22/M01 A2977 RMK A01 T02171008  RH  022%=      5-min Rain = 0
KBY1 180025Z 18006KT 22/M01 A2977 RMK A01 T02171008  RH  022%=      5-min Rain = 0
KBY1 180026Z 18006KT 22/M01 A2977 RMK A01 T02171008  RH  022%=      5-min Rain = 0
KBY1 180027Z 18006KT 22/M01 A2977 RMK A01 T02171008  RH  022%=      5-min Rain = 0
KBY1 180028Z 18006KT 22/M01 A2977 RMK A01 T02161007  RH  022%=      5-min Rain = 0
KBY1 180029Z 18006KT 22/M01 A2977 RMK A01 T02161007  RH  023%=      5-min Rain = 0
KBY1 180030Z 18006KT 22/M01 A2977 RMK A01 T02151007  RH  023%=      5-min Rain = 0
KBY1 180031Z 18006KT 22/M01 A2977 RMK A01 T02151007  RH  023%=      5-min Rain = 0
KBY1 180032Z 18006KT 21/M01 A2977 RMK A01 T02141007  RH  023%=      5-min Rain = 0
KBY1 180033Z 18006KT 21/M01 A2977 RMK A01 T02121007  RH  023%=      5-min Rain = 0
KBY1 180034Z 18006KT 21/M01 A2977 RMK A01 T02121008  RH  023%=      5-min Rain = 0
KBY1 180035Z 18005KT 21/M01 A2977 RMK A01 T02111007  RH  023%=      5-min Rain = 0
KBY1 180036Z 18005KT 21/M01 A2977 RMK A01 T02111007  RH  023%=      5-min Rain = 0
KBY1 180037Z 18005KT 21/M01 A2977 RMK A01 T02101006  RH  024%=      5-min Rain = 0
KBY1 180038Z 18005KT 21/M01 A2977 RMK A01 T02081007  RH  024%=      5-min Rain = 0
KBY1 180039Z 18005KT 21/M01 A2977 RMK A01 T02071007  RH  024%=      5-min Rain = 0
KBY1 180040Z 18005KT 21/M01 A2977 RMK A01 T02061007  RH  024%=      5-min Rain = 0
KBY1 180041Z 18005KT 21/M01 A2977 RMK A01 T02051007  RH  024%=      5-min Rain = 0
KBY1 180042Z 18005KT 20/M01 A2977 RMK A01 T02041006  RH  024%=      5-min Rain = 0
KBY1 180043Z 18006KT 20/M01 A2977 RMK A01 T02031006  RH  025%=      5-min Rain = 0
KBY1 180044Z 18005KT 20/M01 A2977 RMK A01 T02021006  RH  025%=      5-min Rain = 0
KBY1 180045Z 18005KT 20/M01 A2977 RMK A01 T02011005  RH  025%=      5-min Rain = 0
KBY1 180046Z 17005KT 20/M01 A2977 RMK A01 T01991005  RH  025%=      5-min Rain = 0
KBY1 180047Z 18005KT 20/M01 A2977 RMK A01 T01981006  RH  025%=      5-min Rain = 0
KBY1 180048Z 18005KT 20/M01 A2977 RMK A01 T01981005  RH  026%=      5-min Rain = 0
KBY1 180049Z 18005KT 20/M01 A2977 RMK A01 T01971005  RH  026%=      5-min Rain = 0
KBY1 180050Z 17005KT 20/M01 A2977 RMK A01 T01961005  RH  026%=      5-min Rain = 0
KBY1 180051Z 17005KT 20/M01 A2977 RMK A01 T01951005  RH  026%=      5-min Rain = 0
KBY1 180052Z 17005KT 20/M01 A2977 RMK A01 T01951005  RH  026%=      5-min Rain = 0
KBY1 180053Z 17005KT 19/M01 A2977 RMK A01 T01941005  RH  026%=      5-min Rain = 0
KBY1 180054Z 17005KT 19/M00 A2977 RMK A01 T01941003  RH  026%=      5-min Rain = 0
KBY1 180055Z 16005KT 19/M00 A2977 RMK A01 T01941003  RH  027%=      5-min Rain = 0
KBY1 180056Z 16004KT 19/M00 A2977 RMK A01 T01931001  RH  027%=      5-min Rain = 0
KBY1 180057Z 17004KT 19/M00 A2977 RMK A01 T01921001  RH  027%=      5-min Rain = 0
KBY1 180058Z 17005KT 19/M00 A2977 RMK A01 T01911002  RH  027%=      5-min Rain = 0
KBY1 180059Z 17005KT 19/M00 A2977 RMK A01 T01901002  RH  027%=      5-min Rain = 0
KBY1 180100Z 17005KT 19/M00 A2977 RMK A01 T01891003  RH  027%=      5-min Rain = 0
KBY1 180101Z 17005KT 19/M01 A2977 RMK A01 T01891005  RH  027%=      5-min Rain = 0
KBY1 180102Z 17005KT 19/M01 A2977 RMK A01 T01891005  RH  027%=      5-min Rain = 0
KBY1 180103Z 18005KT 19/M01 A2977 RMK A01 T01891005  RH  027%=      5-min Rain = 0
KBY1 180104Z 17006KT 19/M00 A2977 RMK A01 T01891004  RH  027%=      5-min Rain = 0
KBY1 180105Z 17006KT 19/M00 A2977 RMK A01 T01891004  RH  027%=      5-min Rain = 0
KBY1 180106Z 17006KT 19/M00 A2977 RMK A01 T01891002  RH  028%=      5-min Rain = 0
KBY1 180107Z 18006KT 19/M00 A2977 RMK A01 T01881002  RH  028%=      5-min Rain = 0
KBY1 180108Z 18006KT 19/M00 A2977 RMK A01 T01871003  RH  028%=      5-min Rain = 0
KBY1 180109Z 18006KT 19/M00 A2977 RMK A01 T01871003  RH  028%=      5-min Rain = 0
KBY1 180110Z 18007KT 19/M00 A2977 RMK A01 T01871003  RH  028%=      5-min Rain = 0
KBY1 180111Z 18008KT 19/M00 A2977 RMK A01 T01871003  RH  028%=      5-min Rain = 0
KBY1 180112Z 18007KT 19/M00 A2977 RMK A01 T01891002  RH  027%=      5-min Rain = 0
KBY1 180113Z 18008KT 19/M00 A2977 RMK A01 T01911002  RH  027%=      5-min Rain = 0
KBY1 180114Z 18007KT 19/M00 A2977 RMK A01 T01941002  RH  027%=      5-min Rain = 0
KBY1 180115Z 18007KT 20/M00 A2977 RMK A01 T01951002  RH  027%=      5-min Rain = 0
KBY1 180116Z 18008KT 20/M00 A2977 RMK A01 T01971002  RH  026%=      5-min Rain = 0
KBY1 180117Z 18008KT 20/M00 A2977 RMK A01 T01991002  RH  026%=      5-min Rain = 0
KBY1 180118Z 18007KT 20/M00 A2977 RMK A01 T02011001  RH  026%=      5-min Rain = 0
KBY1 180119Z 18009KT 20/M00 A2977 RMK A01 T02021001  RH  026%=      5-min Rain = 0
KBY1 180120Z 18008KT 20/M00 A2977 RMK A01 T02031002  RH  025%=      5-min Rain = 0
KBY1 180121Z 18009KT 20/M00 A2977 RMK A01 T02041001  RH  025%=      5-min Rain = 0
KBY1 180122Z 18008KT 20/M00 A2977 RMK A01 T02041001  RH  025%=      5-min Rain = 0
KBY1 180123Z 18011KT 21/M00 A2977 RMK A01 T02051002  RH  025%=      5-min Rain = 0
KBY1 180124Z 18007KT 21/M00 A2977 RMK A01 T02061002  RH  025%=      5-min Rain = 0
KBY1 180125Z 18009KT 21/M00 A2977 RMK A01 T02071001  RH  025%=      5-min Rain = 0
KBY1 180126Z 18007KT 21/M00 A2977 RMK A01 T02061001  RH  025%=      5-min Rain = 0
KBY1 180127Z 18007KT 21/M00 A2977 RMK A01 T02051001  RH  025%=      5-min Rain = 0
KBY1 180128Z 18008KT 20/M00 A2977 RMK A01 T02031002  RH  025%=      5-min Rain = 0
KBY1 180129Z 18010KT 20/M00 A2977 RMK A01 T02031002  RH  025%=      5-min Rain = 0
KBY1 180130Z 18009KT 20/M00 A2977 RMK A01 T02041002  RH  025%=      5-min Rain = 0
KBY1 180131Z 18010KT 20/M00 A2977 RMK A01 T02041002  RH  025%=      5-min Rain = 0
KBY1 180132Z 18008KT 20/M00 A2977 RMK A01 T02041002  RH  025%=      5-min Rain = 0
KBY1 180133Z 18007KT 20/M00 A2977 RMK A01 T02031002  RH  025%=      5-min Rain = 0
KBY1 180134Z 18008KT 20/M00 A2977 RMK A01 T02021002  RH  025%=      5-min Rain = 0
KBY1 180135Z 18007KT 20/M00 A2977 RMK A01 T02011002  RH  026%=      5-min Rain = 0
KBY1 180136Z 18007KT 20/M00 A2977 RMK A01 T02001002  RH  026%=      5-min Rain = 0
KBY1 180137Z 18007KT 20/M00 A2977 RMK A01 T01981002  RH  026%=      5-min Rain = 0
KBY1 180138Z 18007KT 20/M00 A2977 RMK A01 T01971002  RH  026%=      5-min Rain = 0
KBY1 180139Z 18007KT 20/M00 A2977 RMK A01 T01971002  RH  026%=      5-min Rain = 0
KBY1 180140Z 18007KT 20/M00 A2977 RMK A01 T01961001  RH  027%=      5-min Rain = 0
KBY1 180141Z 18008KT 20/M00 A2977 RMK A01 T01951002  RH  027%=      5-min Rain = 0
KBY1 180142Z 18007KT 20/M00 A2977 RMK A01 T01951002  RH  027%=      5-min Rain = 0
KBY1 180143Z 18008KT 20/M00 A2977 RMK A01 T01951001  RH  027%=      5-min Rain = 0
KBY1 180144Z 18009KT 20/M00 A2977 RMK A01 T01951002  RH  027%=      5-min Rain = 0
KBY1 180145Z 18008KT 20/M00 A2977 RMK A01 T01951001  RH  027%=      5-min Rain = 0
KBY1 180146Z 18008KT 19/M00 A2977 RMK A01 T01941001  RH  027%=      5-min Rain = 0
KBY1 180147Z 18008KT 19/00 A2977 RMK A01 T019400-0  RH  027%=      5-min Rain = 0
KBY1 180148Z 18008KT 20/00 A2977 RMK A01 T01950001  RH  027%=      5-min Rain = 0
KBY1 180149Z 18008KT 19/00 A2977 RMK A01 T01940001  RH  027%=      5-min Rain = 0
KBY1 180150Z 18008KT 19/00 A2977 RMK A01 T01940001  RH  027%=      5-min Rain = 0
KBY1 180151Z 18008KT 19/00 A2977 RMK A01 T01940002  RH  027%=      5-min Rain = 0
KBY1 180152Z 17007KT 19/00 A2977 RMK A01 T01930003  RH  028%=      5-min Rain = 0
KBY1 180153Z 17008KT 19/00 A2977 RMK A01 T01920003  RH  028%=      5-min Rain = 0
KBY1 180154Z 18007KT 19/00 A2977 RMK A01 T01910003  RH  028%=      5-min Rain = 0
KBY1 180155Z 18007KT 19/00 A2977 RMK A01 T01890003  RH  029%=      5-min Rain = 0
KBY1 180156Z 18007KT 19/00 A2977 RMK A01 T01880003  RH  029%=      5-min Rain = 0
KBY1 180157Z 18007KT 19/00 A2977 RMK A01 T01870003  RH  029%=      5-min Rain = 0
KBY1 180158Z 18007KT 19/00 A2977 RMK A01 T01860003  RH  029%=      5-min Rain = 0
KBY1 180159Z 18006KT 19/00 A2977 RMK A01 T01860003  RH  029%=      5-min Rain = 0
KBY1 180200Z 18006KT 19/00 A2977 RMK A01 T01850003  RH  029%=      5-min Rain = 0
KBY1 180201Z 18006KT 18/00 A2977 RMK A01 T01840002  RH  029%=      5-min Rain = 0
KBY1 180202Z 18008KT 18/00 A2977 RMK A01 T01840001  RH  029%=      5-min Rain = 0
KBY1 180203Z 18008KT 18/00 A2977 RMK A01 T01840001  RH  029%=      5-min Rain = 0
KBY1 180204Z 18009KT 19/00 A2977 RMK A01 T01850000  RH  029%=      5-min Rain = 0
KBY1 180205Z 18008KT 19/00 A2977 RMK A01 T01880001  RH  028%=      5-min Rain = 0
KBY1 180206Z 18008KT 19/00 A2977 RMK A01 T01890001  RH  028%=      5-min Rain = 0
KBY1 180207Z 18009KT 19/00 A2977 RMK A01 T01890001  RH  028%=      5-min Rain = 0
KBY1 180208Z 18008KT 19/00 A2977 RMK A01 T01890001  RH  028%=      5-min Rain = 0
KBY1 180209Z 18008KT 19/00 A2977 RMK A01 T01890001  RH  028%=      5-min Rain = 0
KBY1 180210Z 18010KT 19/00 A2977 RMK A01 T01880000  RH  028%=      5-min Rain = 0
KBY1 180211Z 18009KT 19/00 A2977 RMK A01 T01900000  RH  028%=      5-min Rain = 0
KBY1 180212Z 18008KT 19/00 A2977 RMK A01 T01910000  RH  028%=      5-min Rain = 0
KBY1 180213Z 18010KT 19/00 A2977 RMK A01 T01910000  RH  028%=      5-min Rain = 0
KBY1 180214Z 19007KT 19/00 A2977 RMK A01 T01920000  RH  028%=      5-min Rain = 0
KBY1 180215Z 18009KT 19/00 A2977 RMK A01 T01910001  RH  028%=      5-min Rain = 0
KBY1 180216Z 18009KT 19/00 A2977 RMK A01 T01910000  RH  028%=      5-min Rain = 0
KBY1 180217Z 18009KT 19/00 A2977 RMK A01 T01920001  RH  028%=      5-min Rain = 0
KBY1 180218Z 18010KT 19/00 A2977 RMK A01 T01910001  RH  028%=      5-min Rain = 0
KBY1 180219Z 18009KT 19/00 A2977 RMK A01 T01920001  RH  028%=      5-min Rain = 0
KBY1 180220Z 18007KT 19/00 A2977 RMK A01 T01920001  RH  028%=      5-min Rain = 0
KBY1 180221Z 18007KT 19/00 A2977 RMK A01 T01910001  RH  028%=      5-min Rain = 0
KBY1 180222Z 18008KT 19/00 A2977 RMK A01 T01900001  RH  028%=      5-min Rain = 0
KBY1 180223Z 18009KT 19/00 A2977 RMK A01 T01890001  RH  028%=      5-min Rain = 0
KBY1 180224Z 18008KT 19/00 A2977 RMK A01 T01890001  RH  028%=      5-min Rain = 0
KBY1 180225Z 18008KT 19/00 A2977 RMK A01 T01890002  RH  028%=      5-min Rain = 0
KBY1 180226Z 18007KT 19/00 A2977 RMK A01 T01890002  RH  028%=      5-min Rain = 0
KBY1 180227Z 18008KT 19/00 A2977 RMK A01 T01880002  RH  029%=      5-min Rain = 0
KBY1 180228Z 18008KT 19/00 A2977 RMK A01 T01880002  RH  029%=      5-min Rain = 0
KBY1 180229Z 18008KT 19/00 A2977 RMK A01 T01870003  RH  029%=      5-min Rain = 0
KBY1 180230Z 17008KT 19/00 A2977 RMK A01 T01860003  RH  029%=      5-min Rain = 0
KBY1 180231Z 18007KT 19/00 A2977 RMK A01 T01860003  RH  029%=      5-min Rain = 0
KBY1 180232Z 17008KT 18/00 A2977 RMK A01 T01840003  RH  029%=      5-min Rain = 0
KBY1 180233Z 17008KT 18/00 A2977 RMK A01 T01840003  RH  030%=      5-min Rain = 0
KBY1 180234Z 17008KT 18/00 A2977 RMK A01 T01840004  RH  030%=      5-min Rain = 0
KBY1 180235Z 18009KT 18/01 A2977 RMK A01 T01840005  RH  030%=      5-min Rain = 0
KBY1 180236Z 18008KT 18/00 A2977 RMK A01 T01830004  RH  030%=      5-min Rain = 0
KBY1 180237Z 18010KT 18/00 A2977 RMK A01 T01830004  RH  030%=      5-min Rain = 0
KBY1 180238Z 18008KT 18/00 A2977 RMK A01 T01840004  RH  030%=      5-min Rain = 0
KBY1 180239Z 18010KT 18/00 A2977 RMK A01 T01840004  RH  030%=      5-min Rain = 0
KBY1 180240Z 18009KT 18/00 A2977 RMK A01 T01840004  RH  030%=      5-min Rain = 0
KBY1 180241Z 18009KT 18/01 A2977 RMK A01 T01840005  RH  030%=      5-min Rain = 0
KBY1 180242Z 18010KT 18/00 A2977 RMK A01 T01840004  RH  030%=      5-min Rain = 0
KBY1 180243Z 19010KT 19/01 A2977 RMK A01 T01850005  RH  030%=      5-min Rain = 0
KBY1 180244Z 19011KT 19/00 A2977 RMK A01 T01860004  RH  030%=      5-min Rain = 0
KBY1 180245Z 18010KT 19/01 A2977 RMK A01 T01870005  RH  029%=      5-min Rain = 0
KBY1 180246Z 18011KT 19/01 A2977 RMK A01 T01880005  RH  029%=      5-min Rain = 0
KBY1 180247Z 19012KT 19/01 A2977 RMK A01 T01890005  RH  029%=      5-min Rain = 0
KBY1 180248Z 19009KT 19/01 A2977 RMK A01 T01900005  RH  029%=      5-min Rain = 0
KBY1 180249Z 18011KT 19/01 A2977 RMK A01 T01900005  RH  029%=      5-min Rain = 0
KBY1 180250Z 19009KT 19/01 A2977 RMK A01 T01910005  RH  029%=      5-min Rain = 0
KBY1 180251Z 19008KT 19/01 A2977 RMK A01 T01910006  RH  029%=      5-min Rain = 0
KBY1 180252Z 18011KT 19/01 A2977 RMK A01 T01900006  RH  029%=      5-min Rain = 0
KBY1 180253Z 18011KT 19/01 A2977 RMK A01 T01890007  RH  029%=      5-min Rain = 0
KBY1 180254Z 18010KT 19/01 A2977 RMK A01 T01890007  RH  029%=      5-min Rain = 0
KBY1 180255Z 18010KT 19/01 A2977 RMK A01 T01890008  RH  030%=      5-min Rain = 0
KBY1 180256Z 18010KT 19/01 A2977 RMK A01 T01890009  RH  030%=      5-min Rain = 0
KBY1 180257Z 18009KT 19/01 A2977 RMK A01 T01890009  RH  030%=      5-min Rain = 0
KBY1 180258Z 18010KT 19/01 A2977 RMK A01 T01890009  RH  030%=      5-min Rain = 0
KBY1 180259Z 18011KT 19/01 A2977 RMK A01 T01890009  RH  030%=      5-min Rain = 0
KBY1 180300Z 19010KT 19/01 A2977 RMK A01 T01900009  RH  030%=      5-min Rain = 0
KBY1 180301Z 19008KT 19/01 A2977 RMK A01 T01910010  RH  030%=      5-min Rain = 0
KBY1 180302Z 18010KT 19/01 A2977 RMK A01 T01900011  RH  030%=      5-min Rain = 0
KBY1 180303Z 19010KT 19/01 A2977 RMK A01 T01890011  RH  030%=      5-min Rain = 0
KBY1 180304Z 19010KT 19/01 A2977 RMK A01 T01890011  RH  030%=      5-min Rain = 0
KBY1 180305Z 18009KT 19/01 A2977 RMK A01 T01890011  RH  030%=      5-min Rain = 0
KBY1 180306Z 18010KT 19/01 A2977 RMK A01 T01890011  RH  030%=      5-min Rain = 0
KBY1 180307Z 18010G15KT 19/01 A2977 RMK A01 T01890012  RH  030%=      5-min Rain = 0
KBY1 180308Z 19010KT 19/01 A2977 RMK A01 T01890013  RH  031%=      5-min Rain = 0
KBY1 180309Z 19010G15KT 19/01 A2977 RMK A01 T01890013  RH  031%=      5-min Rain = 0
KBY1 180310Z 19011KT 19/01 A2977 RMK A01 T01880013  RH  031%=      5-min Rain = 0
KBY1 180311Z 18011KT 19/01 A2977 RMK A01 T01880013  RH  031%=      5-min Rain = 0
KBY1 180312Z 18011KT 19/01 A2977 RMK A01 T01880014  RH  031%=      5-min Rain = 0
KBY1 180313Z 19010KT 19/01 A2977 RMK A01 T01890014  RH  031%=      5-min Rain = 0
KBY1 180314Z 19012KT 19/01 A2977 RMK A01 T01890014  RH  031%=      5-min Rain = 0
KBY1 180315Z 18012KT 19/01 A2977 RMK A01 T01890014  RH  031%=      5-min Rain = 0
KBY1 180316Z 19012KT 19/02 A2977 RMK A01 T01900015  RH  031%=      5-min Rain = 0
KBY1 180317Z 19012KT 19/02 A2977 RMK A01 T01900015  RH  031%=      5-min Rain = 0
KBY1 180318Z 19011KT 19/02 A2977 RMK A01 T01910015  RH  031%=      5-min Rain = 0
KBY1 180319Z 19012KT 19/02 A2977 RMK A01 T01920015  RH  031%=      5-min Rain = 0
KBY1 180320Z 19009KT 19/02 A2977 RMK A01 T01920015  RH  031%=      5-min Rain = 0
KBY1 180321Z 19008G15KT 19/02 A2977 RMK A01 T01910016  RH  031%=      5-min Rain = 0
KBY1 180322Z 19012KT 19/02 A2977 RMK A01 T01910016  RH  031%=      5-min Rain = 0
KBY1 180323Z 19010KT 19/02 A2977 RMK A01 T01920016  RH  031%=      5-min Rain = 0
KBY1 180324Z 19011KT 19/02 A2977 RMK A01 T01920016  RH  031%=      5-min Rain = 0
KBY1 180325Z 20011KT 19/02 A2977 RMK A01 T01930017  RH  031%=      5-min Rain = 0
KBY1 180326Z 19012KT 19/02 A2977 RMK A01 T01930017  RH  031%=      5-min Rain = 0
KBY1 180327Z 20013KT 19/02 A2977 RMK A01 T01940017  RH  031%=      5-min Rain = 0
KBY1 180328Z 20011KT 19/02 A2977 RMK A01 T01940017  RH  031%=      5-min Rain = 0
KBY1 180329Z 20013KT 20/02 A2977 RMK A01 T01950018  RH  031%=      5-min Rain = 0
KBY1 180330Z 20014G19KT 20/02 A2977 RMK A01 T01950018  RH  031%=      5-min Rain = 0
KBY1 180331Z 20011KT 20/02 A2977 RMK A01 T01970018  RH  030%=      5-min Rain = 0
KBY1 180332Z 20011KT 20/02 A2977 RMK A01 T01980018  RH  030%=      5-min Rain = 0
KBY1 180333Z 19011KT 20/02 A2977 RMK A01 T01980018  RH  030%=      5-min Rain = 0
KBY1 180334Z 20015G21KT 20/02 A2977 RMK A01 T01980018  RH  030%=      5-min Rain = 0
KBY1 180335Z 19015KT 20/02 A2977 RMK A01 T02000019  RH  030%=      5-min Rain = 0
KBY1 180336Z 19015KT 20/02 A2977 RMK A01 T02020019  RH  030%=      5-min Rain = 0
KBY1 180337Z 19012G17KT 20/02 A2977 RMK A01 T02030019  RH  029%=      5-min Rain = 0
KBY1 180338Z 20012KT 20/02 A2977 RMK A01 T02030019  RH  030%=      5-min Rain = 0
KBY1 180339Z 20016KT 20/02 A2977 RMK A01 T02020020  RH  030%=      5-min Rain = 0
KBY1 180340Z 19014KT 20/02 A2977 RMK A01 T02020020  RH  030%=      5-min Rain = 0
KBY1 180341Z 20015KT 20/02 A2977 RMK A01 T02040020  RH  030%=      5-min Rain = 0
KBY1 180342Z 20014G21KT 20/02 A2977 RMK A01 T02040021  RH  030%=      5-min Rain = 0
KBY1 180343Z 20012KT 20/02 A2977 RMK A01 T02040021  RH  030%=      5-min Rain = 0
KBY1 180344Z 20015G22KT 20/02 A2977 RMK A01 T02040022  RH  030%=      5-min Rain = 0
KBY1 180345Z 20015KT 20/02 A2977 RMK A01 T02030022  RH  030%=      5-min Rain = 0
KBY1 180346Z 19014KT 20/02 A2977 RMK A01 T02040022  RH  030%=      5-min Rain = 0
KBY1 180347Z 20014KT 21/02 A2977 RMK A01 T02050022  RH  030%=      5-min Rain = 0
KBY1 180348Z 20013G18KT 21/02 A2977 RMK A01 T02050023  RH  030%=      5-min Rain = 0
KBY1 180349Z 21013KT 20/02 A2977 RMK A01 T02040023  RH  030%=      5-min Rain = 0
KBY1 180350Z 20015KT 20/02 A2977 RMK A01 T02040023  RH  030%=      5-min Rain = 0
KBY1 180351Z 20015G20KT 20/02 A2977 RMK A01 T02040023  RH  030%=      5-min Rain = 0
KBY1 180352Z 20014G20KT 20/02 A2977 RMK A01 T02040024  RH  030%=      5-min Rain = 0
KBY1 180353Z 20018G26KT 20/02 A2977 RMK A01 T02040024  RH  030%=      5-min Rain = 0
KBY1 180354Z 20016G21KT 21/02 A2977 RMK A01 T02060024  RH  030%=      5-min Rain = 0
KBY1 180355Z 20016G21KT 21/02 A2977 RMK A01 T02060024  RH  030%=      5-min Rain = 0
KBY1 180356Z 20013KT 21/02 A2977 RMK A01 T02060024  RH  030%=      5-min Rain = 0
KBY1 180357Z 20018KT 21/02 A2978 RMK A01 T02060024  RH  030%=      5-min Rain = 0
KBY1 180358Z 20014KT 21/02 A2978 RMK A01 T02060024  RH  030%=      5-min Rain = 0
KBY1 180359Z 20017G24KT 21/02 A2978 RMK A01 T02060024  RH  030%=      5-min Rain = 0
KBY1 180400Z 20015G22KT 21/02 A2978 RMK A01 T02060024  RH  030%=      5-min Rain = 0
KBY1 180401Z 20014KT 21/02 A2978 RMK A01 T02060024  RH  030%=      5-min Rain = 0
KBY1 180402Z 20013G22KT 21/02 A2978 RMK A01 T02060024  RH  030%=      5-min Rain = 0
KBY1 180403Z 20016KT 20/02 A2978 RMK A01 T02040024  RH  030%=      5-min Rain = 0
KBY1 180404Z 20016G21KT 20/02 A2978 RMK A01 T02040024  RH  030%=      5-min Rain = 0
KBY1 180405Z 20018G23KT 20/02 A2978 RMK A01 T02040024  RH  030%=      5-min Rain = 0
KBY1 180406Z 20015KT 20/02 A2978 RMK A01 T02040024  RH  030%=      5-min Rain = 0
KBY1 180407Z 19018G23KT 20/02 A2978 RMK A01 T02040024  RH  030%=      5-min Rain = 0
KBY1 180408Z 20020KT 20/02 A2978 RMK A01 T02030024  RH  031%=      5-min Rain = 0
KBY1 180409Z 20016KT 20/02 A2978 RMK A01 T02030024  RH  030%=      5-min Rain = 0
KBY1 180410Z 20018G23KT 20/02 A2978 RMK A01 T02040024  RH  030%=      5-min Rain = 0
KBY1 180411Z 20020KT 20/02 A2978 RMK A01 T02030024  RH  031%=      5-min Rain = 0
KBY1 180412Z 21018G25KT 20/02 A2978 RMK A01 T02030024  RH  031%=      5-min Rain = 0
KBY1 180413Z 21016G22KT 20/02 A2978 RMK A01 T02020024  RH  031%=      5-min Rain = 0
KBY1 180414Z 20016G24KT 20/03 A2978 RMK A01 T02010025  RH  031%=      5-min Rain = 0
KBY1 180415Z 21017G22KT 20/03 A2978 RMK A01 T02000025  RH  031%=      5-min Rain = 0
KBY1 180416Z 21015G21KT 20/03 A2978 RMK A01 T02000025  RH  031%=      5-min Rain = 0
KBY1 180417Z 21018KT 20/03 A2978 RMK A01 T01990025  RH  031%=      5-min Rain = 0
KBY1 180418Z 21015KT 20/03 A2978 RMK A01 T01990025  RH  031%=      5-min Rain = 0
KBY1 180419Z 20017G22KT 20/03 A2978 RMK A01 T01990025  RH  032%=      5-min Rain = 0
KBY1 180420Z 20015KT 20/03 A2978 RMK A01 T01980025  RH  032%=      5-min Rain = 0
KBY1 180421Z 20017G24KT 20/03 A2978 RMK A01 T01980025  RH  032%=      5-min Rain = 0
KBY1 180422Z 20016KT 20/03 A2978 RMK A01 T01970025  RH  032%=      5-min Rain = 0
KBY1 180423Z 21018KT 20/03 A2978 RMK A01 T01970025  RH  032%=      5-min Rain = 0
KBY1 180424Z 21016KT 20/03 A2978 RMK A01 T01960025  RH  032%=      5-min Rain = 0
KBY1 180425Z 21014G19KT 20/03 A2978 RMK A01 T01960026  RH  032%=      5-min Rain = 0
KBY1 180426Z 20015G21KT 20/03 A2978 RMK A01 T01950026  RH  032%=      5-min Rain = 0
KBY1 180427Z 20015KT 19/03 A2978 RMK A01 T01940026  RH  033%=      5-min Rain = 0
KBY1 180428Z 20013KT 19/03 A2978 RMK A01 T01940026  RH  033%=      5-min Rain = 0
KBY1 180429Z 20015KT 19/03 A2978 RMK A01 T01930026  RH  033%=      5-min Rain = 0
KBY1 180430Z 20013G19KT 19/03 A2978 RMK A01 T01920027  RH  033%=      5-min Rain = 0
KBY1 180431Z 20012KT 19/03 A2978 RMK A01 T01920027  RH  033%=      5-min Rain = 0
KBY1 180432Z 21014KT 19/03 A2978 RMK A01 T01910027  RH  034%=      5-min Rain = 0
KBY1 180433Z 20014G21KT 19/03 A2978 RMK A01 T01910027  RH  034%=      5-min Rain = 0
KBY1 180434Z 20012KT 19/03 A2978 RMK A01 T01910027  RH  034%=      5-min Rain = 0
KBY1 180435Z 20015KT 19/03 A2978 RMK A01 T01910027  RH  034%=      5-min Rain = 0
KBY1 180436Z 20014KT 19/03 A2978 RMK A01 T01910027  RH  034%=      5-min Rain = 0
KBY1 180437Z 20015KT 19/03 A2978 RMK A01 T01910027  RH  034%=      5-min Rain = 0
KBY1 180438Z 20014KT 19/03 A2978 RMK A01 T01900027  RH  034%=      5-min Rain = 0
KBY1 180439Z 20011KT 19/03 A2978 RMK A01 T01910027  RH  034%=      5-min Rain = 0
KBY1 180440Z 20014KT 19/03 A2978 RMK A01 T01900028  RH  034%=      5-min Rain = 0
KBY1 180441Z 20014KT 19/03 A2978 RMK A01 T01900028  RH  034%=      5-min Rain = 0
KBY1 180442Z 20014KT 19/03 A2978 RMK A01 T01890028  RH  034%=      5-min Rain = 0
KBY1 180443Z 20014KT 19/03 A2978 RMK A01 T01890028  RH  034%=      5-min Rain = 0
KBY1 180444Z 21016G22KT 19/03 A2978 RMK A01 T01890028  RH  034%=      5-min Rain = 0
KBY1 180445Z 21015KT 19/03 A2978 RMK A01 T01890028  RH  034%=      5-min Rain = 0
KBY1 180446Z 21016G21KT 19/03 A2978 RMK A01 T01890028  RH  034%=      5-min Rain = 0
KBY1 180447Z 20016KT 19/03 A2978 RMK A01 T01890028  RH  034%=      5-min Rain = 0
KBY1 180448Z 20013KT 19/03 A2978 RMK A01 T01880028  RH  034%=      5-min Rain = 0
KBY1 180449Z 20014KT 19/03 A2978 RMK A01 T01870028  RH  035%=      5-min Rain = 0
KBY1 180450Z 20012G17KT 19/03 A2978 RMK A01 T01870028  RH  035%=      5-min Rain = 0
KBY1 180451Z 20016KT 19/03 A2978 RMK A01 T01860028  RH  035%=      5-min Rain = 0
KBY1 180452Z 20013KT 19/03 A2978 RMK A01 T01860028  RH  035%=      5-min Rain = 0
KBY1 180453Z 20012KT 19/03 A2978 RMK A01 T01860028  RH  035%=      5-min Rain = 0
KBY1 180454Z 20013KT 19/03 A2978 RMK A01 T01850029  RH  035%=      5-min Rain = 0
KBY1 180455Z 20012KT 19/03 A2978 RMK A01 T01850029  RH  035%=      5-min Rain = 0
KBY1 180456Z 20017G22KT 18/03 A2978 RMK A01 T01840028  RH  035%=      5-min Rain = 0
KBY1 180457Z 20015KT 19/03 A2978 RMK A01 T01850028  RH  035%=      5-min Rain = 0
KBY1 180458Z 20012KT 19/03 A2978 RMK A01 T01860029  RH  035%=      5-min Rain = 0
KBY1 180459Z 20012KT 19/03 A2978 RMK A01 T01850029  RH  035%=      5-min Rain = 0

Page generated in 0.0725 seconds.